Data for 06/06/2011

Time Sea-Level Adjusted Pressure Absolute Pressure Temperature Relative Humidity Dew Point Precipitation   
(mb) (inHg) (mb) (inHg) (C) (F) (%) (C) (F) (mm) (in)
00:01 1016 30 846 24.98 15.4 59.8 43 3.1 37.6 15.8 0.622
00:02 1016 30 846 24.98 15.2 59.4 37 0.8 33.5 15.63 0.615
00:03 1016 30 846 24.98 15.4 59.7 37 0.7 33.3 15.69 0.618
00:04 1016 30 846 24.98 15.7 60.3 33 -0.3 31.4 16.03 0.631
00:05 1016 30 846 24.98 15.9 60.6 38 1.5 34.8 16.23 0.639
00:06 1016 30 846 24.98 15.6 60 39 1.7 35.1 15.96 0.628
00:07 1016 30 846 24.98 15.2 59.4 39 1.6 34.9 15.63 0.615
00:08 1016 30 845 24.95 15 59 40 1.8 35.2 15.36 0.605
00:09 1016 30 845 24.95 14.7 58.4 43 2.3 36.1 15.13 0.596
00:10 1016 30 845 24.95 14.4 57.8 45 2.7 36.8 14.77 0.581
00:11 1016 30 846 24.98 14 57.2 46 2.7 36.8 14.42 0.568
00:12 1016 30 846 24.98 13.7 56.7 45 2.2 36 14.14 0.557
00:13 1016 30 846 24.98 13.6 56.5 46 2.3 36.1 14.03 0.552
00:14 1016 30 846 24.98 13.5 56.3 46 2.1 35.9 13.86 0.546
00:15 1016 30 846 24.98 13.3 56 47 2.2 35.9 13.75 0.541
00:16 1016 30 846 24.98 13.2 55.8 46 2 35.7 13.64 0.537
00:17 1016 30 846 24.98 13.3 55.9 46 1.9 35.4 13.65 0.537
00:18 1016 30 846 24.98 13.3 55.9 45 1.7 35.1 13.68 0.539
00:19 1016 30 846 24.98 13.4 56.2 44 1.5 34.6 13.81 0.544
00:20 1016 30 845 24.95 13.6 56.4 44 1.7 35.1 13.91 0.548
00:21 1016 30 846 24.98 13.5 56.3 46 2.3 36.1 13.87 0.546
00:22 1016 30 846 24.98 13.3 55.9 47 2.2 35.9 13.69 0.539
00:23 1016 30 846 24.98 13.2 55.7 45 1.5 34.7 13.55 0.533
00:24 1016 30 846 24.98 13.3 55.9 45 1.6 34.8 13.63 0.537
00:25 1016 30 846 24.98 13.5 56.2 47 2.3 36.2 13.81 0.544
00:26 1016 30 846 24.98 13.3 55.9 47 2.3 36.2 13.66 0.538
00:27 1016 30 846 24.98 12.9 55.3 49 2.7 36.8 13.37 0.526
00:28 1016 30 846 24.98 12.6 54.7 50 2.6 36.6 13.04 0.513
00:29 1016 30 846 24.98 12.4 54.4 50 2.4 36.3 12.85 0.506
00:30 1016 30 846 24.98 12.4 54.4 49 2.1 35.9 12.78 0.503
00:31 1016 30 846 24.98 12.6 54.6 49 2.3 36.2 12.94 0.509
00:32 1016 30 846 24.98 12.6 54.7 48 2 35.7 13.03 0.513
00:33 1016 30 846 24.98 12.8 55.1 47 1.9 35.3 13.2 0.52
00:34 1016 30 846 24.98 13 55.4 48 2.2 36 13.38 0.527
00:35 1016 30 846 24.98 13.1 55.6 48 2.5 36.5 13.49 0.531
00:36 1016 30 846 24.98 13.1 55.6 50 2.9 37.2 13.52 0.532
00:37 1016 30 846 24.98 13 55.3 50 2.8 37 13.39 0.527
00:38 1016 30 845 24.95 13.1 55.5 50 2.9 37.3 13.42 0.528
00:39 1016 30 846 24.98 13.2 55.8 49 2.7 36.9 13.55 0.533
00:40 1016 30 846 24.98 13.5 56.2 48 2.9 37.2 13.79 0.543
00:41 1016 30 846 24.98 13.4 56.1 50 3.2 37.8 13.8 0.543
00:42 1016 30 846 24.98 13 55.5 48 2.4 36.4 13.47 0.53
00:43 1016 30 846 24.98 12.8 55 49 2.3 36.1 13.18 0.519
00:44 1016 30 846 24.98 12.7 54.8 48 2 35.6 13.04 0.513
00:45 1016 30 846 24.98 12.8 55 47 1.8 35.3 13.13 0.517
00:46 1016 30 845 24.95 13 55.3 48 2.3 36.1 13.31 0.524
00:47 1016 30 845 24.95 13.1 55.6 47 2.2 35.9 13.43 0.529
00:48 1016 30 846 24.98 13.3 55.9 48 2.7 36.9 13.64 0.537
00:49 1016 30 846 24.98 13.2 55.7 50 3 37.5 13.58 0.535
00:50 1016 30 846 24.98 12.8 55 50 2.8 37 13.19 0.519
00:51 1016 30 846 24.98 12.5 54.4 50 2.5 36.5 12.86 0.506
00:52 1016 30 846 24.98 12.2 53.9 51 2.5 36.6 12.61 0.496
00:53 1016 30 846 24.98 12 53.7 51 2.3 36.1 12.43 0.489
00:54 1016 30 846 24.98 12 53.5 52 2.3 36.2 12.37 0.487
00:55 1016 30 846 24.98 11.9 53.4 52 2.6 36.6 12.3 0.484
00:56 1016 30 846 24.98 11.8 53.2 53 2.6 36.7 12.25 0.482
00:57 1016 30 845 24.95 11.8 53.3 53 2.7 36.8 12.24 0.482
00:58 1016 30 845 24.95 11.9 53.5 52 2.6 36.6 12.31 0.485
00:59 1016 30 845 24.95 12.1 53.8 53 2.9 37.1 12.47 0.491
01:00 1016 30 845 24.95 12.4 54.3 53 3.1 37.5 12.74 0.502
01:01 1016 30 845 24.95 12.6 54.6 53 3.2 37.8 12.9 0.508
01:02 1016 30 845 24.95 12.8 55 53 3.6 38.4 13.07 0.515
01:03 1016 30 845 24.95 12.8 55 54 3.6 38.5 13.12 0.517
01:04 1016 30 845 24.95 12.7 54.9 53 3.6 38.4 13.15 0.518
01:05 1016 30 845 24.95 12.8 55.1 53 3.5 38.2 13.18 0.519
01:06 1016 30 845 24.95 13 55.5 52 3.4 38.1 13.39 0.527
01:07 1016 30 845 24.95 13.2 55.8 51 3.5 38.3 13.56 0.534
01:08 1016 30 845 24.95 13.4 56.1 51 3.4 38.2 13.72 0.54
01:09 1016 30 845 24.95 13.7 56.6 48 2.9 37.1 14.04 0.553
01:10 1016 30 845 24.95 14 57.2 46 2.7 36.8 14.34 0.565
01:11 1016 30 845 24.95 14.2 57.6 46 2.9 37.2 14.58 0.574
01:12 1016 30 845 24.95 14.3 57.8 46 2.9 37.3 14.66 0.577
01:13 1016 30 845 24.95 14.3 57.8 46 3 37.4 14.7 0.579
01:14 1016 30 845 24.95 14.3 57.7 46 3 37.3 14.66 0.577
01:15 1016 30 845 24.95 14.4 57.8 44 2.4 36.3 14.69 0.578
01:16 1016 30 845 24.95 14.4 58 43 2.1 35.9 14.75 0.581
01:17 1016 30 845 24.95 14.5 58.2 42 1.7 35.1 14.88 0.586
01:18 1016 30 845 24.95 14.7 58.5 41 1.7 35 15.12 0.595
01:19 1016 30 845 24.95 14.9 58.8 42 2.3 36.1 15.23 0.6
01:20 1016 30 845 24.95 14.8 58.7 42 2 35.6 15.21 0.599
01:21 1016 30 845 24.95 14.8 58.7 43 2.5 36.4 15.2 0.598
01:22 1016 30 845 24.95 14.7 58.4 44 2.5 36.5 15.09 0.594
01:23 1016 30 845 24.95 14.4 57.9 44 2.4 36.3 14.84 0.584
01:24 1016 30 845 24.95 14.1 57.4 44 2.1 35.8 14.56 0.573
01:25 1016 30 845 24.95 13.9 57 44 2 35.7 14.31 0.563
01:26 1016 30 845 24.95 13.6 56.5 45 2 35.6 14.04 0.553
01:27 1016 30 845 24.95 13.2 55.8 47 2.2 36 13.65 0.537
01:28 1016 30 845 24.95 12.8 55.1 48 2.3 36.1 13.25 0.522
01:29 1016 30 845 24.95 12.5 54.6 48 1.8 35.2 12.95 0.51
01:30 1016 30 845 24.95 12.4 54.4 47 1.6 34.9 12.81 0.504
01:31 1016 30 845 24.95 12.5 54.4 47 1.5 34.8 12.85 0.506
01:32 1016 30 845 24.95 12.5 54.5 47 1.7 35 12.9 0.508
01:33 1016 30 845 24.95 12.6 54.6 48 2 35.7 12.95 0.51
01:34 1016 30 845 24.95 12.6 54.6 49 2.2 36 12.97 0.511
01:35 1016 30 845 24.95 12.4 54.4 50 2.3 36.1 12.87 0.507
01:36 1016 30 845 24.95 12.2 54 50 2.1 35.8 12.67 0.499
01:37 1016 30 845 24.95 12.2 54 49 1.9 35.5 12.63 0.497
01:38 1016 30 845 24.95 12.5 54.5 47 1.6 34.8 12.82 0.505
01:39 1016 30 845 24.95 12.7 54.8 47 1.6 35 13.04 0.513
01:40 1016 30 845 24.95 12.8 55 48 2 35.6 13.14 0.517
01:41 1016 30 845 24.95 12.7 54.9 48 2.2 35.9 13.13 0.517
01:42 1016 30 845 24.95 12.8 55 48 2.1 35.8 13.15 0.518
01:43 1016 30 845 24.95 13 55.3 49 2.4 36.4 13.3 0.524
01:44 1016 30 845 24.95 13.1 55.7 48 2.3 36.2 13.51 0.532
01:45 1016 30 845 24.95 13.4 56.1 47 2.3 36.2 13.7 0.539
01:46 1016 30 845 24.95 13.5 56.4 47 2.4 36.3 13.91 0.548
01:47 1016 30 845 24.95 13.8 56.8 46 2.5 36.5 14.11 0.556
01:48 1016 30 845 24.95 13.8 56.8 46 2.6 36.6 14.21 0.559
01:49 1016 30 845 24.95 13.6 56.5 47 2.6 36.8 14 0.551
01:50 1016 30 845 24.95 13.3 55.9 48 2.6 36.7 13.73 0.541
01:51 1016 30 845 24.95 13.1 55.6 49 2.7 36.9 13.52 0.532
01:52 1016 30 845 24.95 13.3 55.9 49 2.8 37 13.66 0.538
01:53 1016 30 845 24.95 13.6 56.5 48 2.8 37 13.97 0.55
01:54 1016 30 845 24.95 14 57.1 47 3 37.4 14.32 0.564
01:55 1016 30 845 24.95 14.2 57.6 47 3.2 37.7 14.58 0.574
01:56 1016 30 845 24.95 14.3 57.7 46 3 37.4 14.66 0.577
01:57 1016 30 845 24.95 14.2 57.6 46 2.8 37 14.61 0.575
01:58 1016 30 845 24.95 14 57.2 46 2.8 37 14.42 0.568
01:59 1016 30 845 24.95 13.8 56.8 48 3.2 37.7 14.2 0.559
02:00 1016 30 845 24.95 13.7 56.6 50 3.4 38.1 14.08 0.554
02:01 1016 30 845 24.95 13.6 56.6 49 3.3 38 14.05 0.553
02:02 1016 30 845 24.95 13.7 56.6 50 3.6 38.4 14.08 0.554
02:03 1016 30 845 24.95 13.8 56.8 49 3.5 38.2 14.21 0.559
02:04 1016 30 845 24.95 14 57.2 49 3.7 38.6 14.35 0.565
02:05 1016 30 845 24.95 14.1 57.3 50 3.9 39 14.43 0.568
02:06 1016 30 845 24.95 14.1 57.4 51 4.2 39.5 14.54 0.572
02:07 1016 30 845 24.95 14.1 57.5 52 4.4 40 14.57 0.574
02:08 1016 30 845 24.95 14.3 57.7 52 4.5 40.1 14.62 0.576
02:09 1016 30 845 24.95 14.2 57.6 53 5 40.9 14.63 0.576
02:10 1016 30 845 24.95 14 57.2 54 4.8 40.7 14.44 0.569
02:11 1016 30 845 24.95 13.8 56.8 49 3.4 38.1 14.12 0.556
02:12 1016 30 845 24.95 13.5 56.2 48 2.7 36.9 13.84 0.545
02:13 1016 30 845 24.95 13.3 56 49 2.9 37.2 13.69 0.539
02:14 1016 30 845 24.95 13.3 55.9 52 3.6 38.5 13.69 0.539
02:15 1016 30 845 24.95 13.6 56.5 50 3.6 38.4 13.96 0.55
02:16 1016 30 845 24.95 13.9 57 51 4 39.2 14.21 0.559
02:17 1016 30 845 24.95 14.2 57.5 50 4.1 39.4 14.51 0.571
02:18 1016 30 845 24.95 14.4 58 50 4.3 39.7 14.78 0.582
02:19 1016 30 845 24.95 14.6 58.2 51 4.5 40.1 14.94 0.588
02:20 1016 30 845 24.95 14.6 58.3 51 4.8 40.6 14.99 0.59
02:21 1016 30 845 24.95 14.5 58.1 52 4.9 40.9 14.92 0.587
02:22 1016 30 845 24.95 14.3 57.8 53 4.9 40.8 14.77 0.581
02:23 1016 30 845 24.95 14.3 57.7 52 4.6 40.3 14.7 0.579
02:24 1016 30 845 24.95 14.4 58 52 4.7 40.5 14.8 0.583
02:25 1016 30 845 24.95 14.6 58.4 50 4.5 40.2 14.98 0.59
02:26 1016 30 845 24.95 14.7 58.5 51 4.8 40.6 15.09 0.594
02:27 1016 30 845 24.95 14.7 58.4 52 4.9 40.8 15.07 0.593
02:28 1016 30 845 24.95 14.7 58.5 51 4.9 40.8 15.08 0.594
02:29 1016 30 845 24.95 14.7 58.4 52 5.1 41.2 15.07 0.593
02:30 1016 30 845 24.95 14.6 58.3 52 5 41 15.02 0.591
02:31 1016 30 845 24.95 14.4 58 50 4.2 39.6 14.86 0.585
02:32 1016 30 845 24.95 14.2 57.5 50 4 39.2 14.56 0.573
02:33 1016 30 845 24.95 14 57.2 52 4.3 39.8 14.42 0.568
02:34 1016 30 845 24.95 14 57.1 52 4.3 39.7 14.34 0.565
02:35 1016 30 845 24.95 13.9 57 52 4.3 39.8 14.29 0.563
02:36 1016 30 845 24.95 14 57.1 53 4.6 40.2 14.33 0.564
02:37 1016 30 845 24.95 14.1 57.4 53 4.9 40.8 14.47 0.57
02:38 1016 30 845 24.95 14.2 57.5 54 5 41 14.59 0.574
02:39 1016 30 845 24.95 14.2 57.5 55 5.3 41.6 14.58 0.574
02:40 1016 30 845 24.95 14.1 57.4 55 5.3 41.5 14.53 0.572
02:41 1016 30 845 24.95 14.2 57.5 55 5.3 41.6 14.54 0.572
02:42 1016 30 845 24.95 14.2 57.6 54 5.1 41.3 14.64 0.576
02:43 1016 30 845 24.95 14.4 58 54 5.2 41.4 14.73 0.58
02:44 1016 30 845 24.95 14.5 58.1 54 5.5 41.8 14.87 0.585
02:45 1016 30 845 24.95 14.6 58.3 53 5.3 41.5 15 0.591
02:46 1016 30 845 24.95 14.7 58.4 54 5.5 41.9 15.04 0.592
02:47 1016 30 845 24.95 14.6 58.3 55 5.6 42.1 14.98 0.59
02:48 1016 30 845 24.95 14.5 58.1 55 5.6 42 14.93 0.588
02:49 1016 30 845 24.95 14.4 57.9 55 5.6 42.1 14.78 0.582
02:50 1016 30 845 24.95 14.3 57.7 54 5.3 41.5 14.67 0.578
02:51 1016 30 845 24.95 14.2 57.6 55 5.4 41.7 14.64 0.576
02:52 1016 30 845 24.95 14.1 57.5 55 5.4 41.7 14.57 0.574
02:53 1016 30 845 24.95 14.1 57.3 53 4.8 40.7 14.48 0.57
02:54 1016 30 845 24.95 14.1 57.4 53 4.7 40.5 14.47 0.57
02:55 1016 30 845 24.95 14.1 57.3 51 4.2 39.5 14.44 0.569
02:56 1015 29.97 845 24.95 14 57.1 51 4 39.2 14.36 0.565
02:57 1016 30 845 24.95 13.8 56.8 51 3.8 38.9 14.25 0.561
02:58 1015 29.97 845 24.95 13.7 56.6 52 4 39.2 14.12 0.556
02:59 1015 29.97 845 24.95 13.5 56.3 51 3.7 38.7 13.93 0.548
03:00 1015 29.97 845 24.95 13.4 56.1 52 3.9 39 13.82 0.544
03:01 1015 29.97 845 24.95 13.3 56 53 4.1 39.4 13.71 0.54
03:02 1015 29.97 845 24.95 13.3 55.9 54 4.2 39.6 13.62 0.536
03:03 1015 29.97 845 24.95 13.2 55.7 54 4.2 39.6 13.58 0.535
03:04 1015 29.97 845 24.95 13.2 55.8 55 4.5 40.1 13.64 0.537
03:05 1015 29.97 845 24.95 13.2 55.8 56 4.6 40.3 13.59 0.535
03:06 1015 29.97 845 24.95 13.1 55.5 55 4.3 39.8 13.48 0.531
03:07 1015 29.97 845 24.95 13.1 55.7 55 4.4 40 13.49 0.531
03:08 1015 29.97 845 24.95 13.2 55.8 56 4.6 40.3 13.62 0.536
03:09 1015 29.97 845 24.95 13.3 56 55 4.6 40.3 13.66 0.538
03:10 1015 29.97 845 24.95 13.3 55.9 56 4.8 40.6 13.68 0.539
03:11 1015 29.97 845 24.95 13.2 55.7 57 4.9 40.8 13.59 0.535
03:12 1015 29.97 845 24.95 12.9 55.2 56 4.3 39.8 13.34 0.525
03:13 1015 29.97 845 24.95 12.7 54.8 56 4.2 39.5 13.13 0.517
03:14 1015 29.97 845 24.95 12.6 54.6 56 4 39.2 12.92 0.509
03:15 1015 29.97 845 24.95 12.4 54.4 56 3.9 38.9 12.83 0.505
03:16 1015 29.97 845 24.95 12.4 54.3 56 3.9 38.9 12.74 0.502
03:17 1015 29.97 845 24.95 12.3 54.2 56 3.9 39.1 12.76 0.502
03:18 1015 29.97 845 24.95 12.3 54.2 55 3.7 38.7 12.71 0.5
03:19 1015 29.97 845 24.95 12.3 54.1 53 3.1 37.6 12.66 0.498
03:20 1015 29.97 845 24.95 12.3 54.1 53 3.1 37.5 12.6 0.496
03:21 1015 29.97 845 24.95 12.2 54 55 3.4 38.1 12.63 0.497
03:22 1015 29.97 845 24.95 12.2 54 56 3.7 38.7 12.62 0.497
03:23 1015 29.97 845 24.95 12.3 54.1 57 4 39.2 12.7 0.5
03:24 1015 29.97 845 24.95 12.4 54.4 57 4.2 39.6 12.78 0.503
03:25 1015 29.97 845 24.95 12.4 54.2 58 4.3 39.7 12.73 0.501
03:26 1015 29.97 845 24.95 12.3 54.2 57 4 39.2 12.7 0.5
03:27 1015 29.97 845 24.95 12.2 54 57 3.9 39 12.64 0.498
03:28 1015 29.97 845 24.95 12.2 54 57 3.9 39 12.59 0.496
03:29 1015 29.97 845 24.95 12.2 53.9 56 3.7 38.6 12.57 0.495
03:30 1015 29.97 845 24.95 12.2 53.9 57 4 39.2 12.59 0.496
03:31 1015 29.97 844 24.92 12.3 54.2 57 4.2 39.6 12.71 0.5
03:32 1015 29.97 844 24.92 12.6 54.7 57 4.3 39.8 12.96 0.51
03:33 1015 29.97 844 24.92 12.9 55.2 56 4.3 39.7 13.24 0.521
03:34 1015 29.97 844 24.92 13.2 55.7 55 4.4 40 13.52 0.532
03:35 1015 29.97 845 24.95 13.4 56.1 55 4.5 40.2 13.75 0.541
03:36 1015 29.97 844 24.92 13.6 56.4 54 4.6 40.2 13.95 0.549
03:37 1015 29.97 845 24.95 13.5 56.3 53 4.3 39.8 13.93 0.548
03:38 1015 29.97 845 24.95 13.3 56 53 4.1 39.4 13.75 0.541
03:39 1015 29.97 844 24.92 13.2 55.8 54 4.1 39.4 13.65 0.537
03:40 1015 29.97 844 24.92 13.2 55.8 54 4.1 39.4 13.57 0.534
03:41 1015 29.97 845 24.95 13.2 55.8 54 4.2 39.6 13.62 0.536
03:42 1015 29.97 844 24.92 13.1 55.5 54 4 39.2 13.49 0.531
03:43 1015 29.97 844 24.92 12.8 55.1 55 4.1 39.4 13.28 0.523
03:44 1015 29.97 845 24.95 12.7 54.8 56 4.2 39.6 13.08 0.515
03:45 1015 29.97 844 24.92 12.6 54.7 57 4.4 39.9 13.02 0.513
03:46 1015 29.97 845 24.95 12.6 54.7 55 3.9 39.1 13 0.512
03:47 1015 29.97 845 24.95 12.7 54.8 54 3.8 38.8 13.02 0.513
03:48 1015 29.97 845 24.95 12.8 55.1 53 3.7 38.6 13.21 0.52
03:49 1015 29.97 844 24.92 13 55.4 52 3.3 38 13.32 0.524
03:50 1015 29.97 844 24.92 13 55.5 52 3.5 38.3 13.44 0.529
03:51 1015 29.97 844 24.92 13.1 55.6 52 3.6 38.5 13.49 0.531
03:52 1015 29.97 844 24.92 13.2 55.7 52 3.7 38.7 13.56 0.534
03:53 1015 29.97 844 24.92 13.3 56 52 3.8 38.8 13.72 0.54
03:54 1015 29.97 844 24.92 13.6 56.4 53 4.2 39.5 13.88 0.546
03:55 1015 29.97 844 24.92 13.6 56.5 53 4.3 39.7 14.03 0.552
03:56 1015 29.97 844 24.92 13.5 56.4 52 4 39.2 13.93 0.548
03:57 1015 29.97 844 24.92 13.4 56.2 52 4 39.1 13.83 0.544
03:58 1015 29.97 844 24.92 13.5 56.2 52 3.9 39 13.83 0.544
03:59 1015 29.97 844 24.92 13.6 56.4 52 4 39.2 13.96 0.55
04:00 1015 29.97 844 24.92 13.7 56.6 51 3.9 38.9 14.08 0.554
04:01 1015 29.97 844 24.92 13.8 56.8 50 3.7 38.7 14.16 0.557
04:02 1015 29.97 844 24.92 13.8 56.8 49 3.4 38.2 14.13 0.556
04:03 1015 29.97 844 24.92 13.6 56.5 49 3.2 37.7 14.01 0.552
04:04 1015 29.97 844 24.92 13.5 56.4 49 3.2 37.8 13.92 0.548
04:05 1015 29.97 844 24.92 13.4 56.1 50 3.4 38.1 13.79 0.543
04:06 1015 29.97 845 24.95 13.4 56.1 49 3.1 37.5 13.77 0.542
04:07 1015 29.97 845 24.95 13.3 55.9 49 2.8 37 13.65 0.537
04:08 1015 29.97 845 24.95 13.1 55.6 48 2.6 36.6 13.57 0.534
04:09 1015 29.97 844 24.92 13.1 55.5 49 2.6 36.7 13.47 0.53
04:10 1015 29.97 844 24.92 13 55.5 49 2.6 36.7 13.43 0.529
04:11 1015 29.97 844 24.92 13.1 55.6 48 2.5 36.5 13.48 0.531
04:12 1015 29.97 844 24.92 13.2 55.7 49 2.7 36.9 13.6 0.535
04:13 1015 29.97 845 24.95 13.2 55.7 49 2.7 36.9 13.56 0.534
04:14 1015 29.97 844 24.92 13.1 55.5 48 2.4 36.3 13.48 0.531
04:15 1015 29.97 844 24.92 12.9 55.2 50 2.7 36.8 13.35 0.526
04:16 1015 29.97 845 24.95 12.8 55 48 2 35.6 13.22 0.52
04:17 1015 29.97 844 24.92 12.8 55.1 47 1.8 35.3 13.22 0.52
04:18 1015 29.97 844 24.92 13 55.4 46 1.9 35.4 13.4 0.528
04:19 1015 29.97 844 24.92 13.2 55.7 46 1.7 35.1 13.54 0.533
04:20 1015 29.97 844 24.92 13.3 55.9 46 2 35.6 13.7 0.539
04:21 1015 29.97 844 24.92 13.4 56 46 2 35.5 13.71 0.54
04:22 1015 29.97 844 24.92 13.4 56.1 45 1.8 35.2 13.77 0.542
04:23 1015 29.97 844 24.92 13.5 56.3 44 1.5 34.8 13.83 0.544
04:24 1015 29.97 844 24.92 13.4 56.2 45 1.9 35.4 13.8 0.543
04:25 1015 29.97 844 24.92 13.3 55.9 46 1.8 35.3 13.67 0.538
04:26 1015 29.97 844 24.92 13.3 55.9 47 2.2 36 13.64 0.537
04:27 1015 29.97 844 24.92 13.2 55.7 47 2.1 35.8 13.61 0.536
04:28 1015 29.97 844 24.92 13.3 55.9 46 2.1 35.7 13.64 0.537
04:29 1015 29.97 844 24.92 13.2 55.8 47 2.2 35.9 13.65 0.537
04:30 1015 29.97 844 24.92 13.3 55.9 45 1.8 35.2 13.69 0.539
04:31 1015 29.97 845 24.95 13.4 56.1 45 1.6 34.9 13.74 0.541
04:32 1015 29.97 845 24.95 13.6 56.4 44 1.5 34.7 13.93 0.548
04:33 1015 29.97 845 24.95 13.8 56.8 44 1.8 35.2 14.14 0.557
04:34 1015 29.97 845 24.95 13.9 57 43 1.7 35 14.3 0.563
04:35 1015 29.97 845 24.95 13.9 57 43 1.6 34.9 14.29 0.563
04:36 1015 29.97 845 24.95 13.9 57.1 42 1.4 34.5 14.32 0.564
04:37 1015 29.97 844 24.92 14.1 57.3 41 1.2 34.2 14.45 0.569
04:38 1015 29.97 844 24.92 14.3 57.7 40 0.9 33.6 14.61 0.575
04:39 1015 29.97 844 24.92 14.4 58 39 0.9 33.6 14.78 0.582
04:40 1015 29.97 844 24.92 14.4 58 41 1.4 34.5 14.81 0.583
04:41 1015 29.97 844 24.92 14.1 57.3 43 1.7 35 14.57 0.574
04:42 1015 29.97 844 24.92 13.7 56.6 44 1.6 34.9 14.16 0.557
04:43 1015 29.97 844 24.92 13.4 56.1 45 1.6 35 13.87 0.546
04:44 1015 29.97 844 24.92 13.3 55.9 45 1.7 35 13.65 0.537
04:45 1015 29.97 844 24.92 13.1 55.6 46 1.8 35.3 13.53 0.533
04:46 1015 29.97 844 24.92 13 55.5 46 1.8 35.2 13.44 0.529
04:47 1015 29.97 844 24.92 13 55.5 46 1.7 35 13.41 0.528
04:48 1015 29.97 844 24.92 13 55.4 47 2.1 35.7 13.4 0.528
04:49 1015 29.97 844 24.92 12.9 55.2 48 2.2 36 13.31 0.524
04:50 1015 29.97 844 24.92 12.8 55 49 2.4 36.3 13.22 0.52
04:51 1015 29.97 844 24.92 12.7 54.8 48 2.1 35.7 13.08 0.515
04:52 1015 29.97 844 24.92 12.6 54.7 46 1.5 34.6 13.01 0.512
04:53 1015 29.97 844 24.92 12.8 55 46 1.6 34.9 13.11 0.516
04:54 1015 29.97 844 24.92 13 55.4 45 1.4 34.6 13.35 0.526
04:55 1015 29.97 844 24.92 13.2 55.7 43 1.1 34 13.54 0.533
04:56 1015 29.97 845 24.95 13.4 56.2 43 1.3 34.3 13.79 0.543
04:57 1015 29.97 844 24.92 13.6 56.6 44 1.8 35.2 13.99 0.551
04:58 1015 29.97 845 24.95 13.8 56.9 44 1.9 35.5 14.22 0.56
04:59 1015 29.97 845 24.95 14 57.2 45 2.4 36.3 14.38 0.566
05:00 1015 29.97 845 24.95 14.1 57.4 44 2.2 36 14.52 0.572
05:01 1015 29.97 845 24.95 14.3 57.7 45 2.6 36.7 14.63 0.576
05:02 1015 29.97 844 24.92 14.2 57.6 46 2.8 37 14.66 0.577
05:03 1015 29.97 844 24.92 14.3 57.8 46 2.8 37.1 14.71 0.579
05:04 1015 29.97 844 24.92 14.4 57.9 46 3 37.3 14.77 0.581
05:05 1015 29.97 845 24.95 14.5 58 46 2.9 37.3 14.87 0.585
05:06 1015 29.97 845 24.95 14.5 58.1 47 3.3 37.9 14.91 0.587
05:07 1015 29.97 845 24.95 14.5 58.1 46 3.1 37.7 14.9 0.587
05:08 1015 29.97 845 24.95 14.5 58 44 2.5 36.4 14.88 0.586
05:09 1015 29.97 845 24.95 14.3 57.8 42 1.7 35.1 14.76 0.581
05:10 1015 29.97 845 24.95 14.3 57.7 42 1.6 34.9 14.61 0.575
05:11 1015 29.97 845 24.95 14.2 57.6 43 1.9 35.4 14.58 0.574
05:12 1015 29.97 845 24.95 14.2 57.5 44 2.2 35.9 14.55 0.573
05:13 1015 29.97 845 24.95 14.2 57.5 45 2.4 36.3 14.61 0.575
05:14 1015 29.97 845 24.95 14.3 57.7 45 2.5 36.5 14.68 0.578
05:15 1015 29.97 845 24.95 14.3 57.7 45 2.6 36.7 14.7 0.579
05:16 1015 29.97 845 24.95 14.3 57.7 45 2.7 36.9 14.68 0.578
05:17 1015 29.97 845 24.95 14.3 57.7 46 2.7 36.9 14.66 0.577
05:18 1015 29.97 844 24.92 14.2 57.6 46 2.9 37.2 14.61 0.575
05:19 1015 29.97 845 24.95 14.2 57.5 46 2.7 36.9 14.55 0.573
05:20 1015 29.97 845 24.95 14.2 57.5 47 3 37.5 14.58 0.574
05:21 1015 29.97 845 24.95 14.1 57.4 47 3 37.4 14.52 0.572
05:22 1015 29.97 845 24.95 14 57.2 47 3 37.4 14.36 0.565
05:23 1015 29.97 845 24.95 13.9 57.1 48 3 37.5 14.33 0.564
05:24 1015 29.97 845 24.95 13.9 57 47 3 37.4 14.29 0.563
05:25 1015 29.97 845 24.95 13.9 57 48 3.2 37.8 14.27 0.562
05:26 1015 29.97 845 24.95 13.8 56.8 48 3.1 37.5 14.17 0.558
05:27 1015 29.97 845 24.95 13.7 56.6 50 3.4 38.2 14.1 0.555
05:28 1015 29.97 845 24.95 13.5 56.3 48 2.8 37 13.88 0.546
05:29 1015 29.97 845 24.95 13.3 55.9 48 2.6 36.8 13.67 0.538
05:30 1015 29.97 845 24.95 13.1 55.5 49 2.6 36.6 13.53 0.533
05:31 1015 29.97 845 24.95 13.1 55.5 49 2.5 36.6 13.41 0.528
05:32 1015 29.97 845 24.95 13 55.4 48 2.2 36 13.39 0.527
05:33 1015 29.97 845 24.95 13 55.3 49 2.6 36.7 13.32 0.524
05:34 1015 29.97 845 24.95 12.9 55.2 50 2.7 36.9 13.25 0.522
05:35 1015 29.97 845 24.95 12.8 55 50 2.6 36.7 13.12 0.517
05:36 1015 29.97 845 24.95 12.7 54.8 50 2.5 36.5 13.12 0.517
05:37 1015 29.97 845 24.95 12.7 54.9 51 2.8 37 13.12 0.517
05:38 1015 29.97 845 24.95 12.7 54.8 50 2.7 36.9 13.06 0.514
05:39 1015 29.97 845 24.95 12.7 54.8 50 2.6 36.7 13.01 0.512
05:40 1015 29.97 845 24.95 12.7 54.8 52 3.1 37.5 13.04 0.513
05:41 1015 29.97 845 24.95 12.6 54.7 52 3.2 37.7 13 0.512
05:42 1015 29.97 845 24.95 12.5 54.4 53 3.3 38 12.88 0.507
05:43 1015 29.97 845 24.95 12.4 54.4 55 3.6 38.4 12.77 0.503
05:44 1015 29.97 845 24.95 12.4 54.3 55 3.6 38.4 12.76 0.502
05:45 1016 30 845 24.95 12.4 54.3 54 3.5 38.3 12.8 0.504
05:46 1016 30 845 24.95 12.4 54.2 57 4.1 39.3 12.74 0.502
05:47 1016 30 845 24.95 12.4 54.4 58 4.6 40.2 12.76 0.502
05:48 1016 30 845 24.95 12.3 54.2 59 4.7 40.4 12.66 0.498
05:49 1016 30 845 24.95 12.3 54.1 61 5 40.9 12.61 0.496
05:50 1016 30 845 24.95 12.2 53.9 62 5.2 41.4 12.48 0.491
05:51 1016 30 845 24.95 12.1 53.7 63 5.2 41.4 12.36 0.487
05:52 1016 30 845 24.95 12 53.6 64 5.4 41.6 12.29 0.484
05:53 1016 30 845 24.95 11.9 53.4 64 5.5 41.8 12.15 0.478
05:54 1016 30 845 24.95 11.8 53.3 65 5.5 41.9 12.06 0.475
05:55 1016 30 845 24.95 11.8 53.2 65 5.5 41.8 12.02 0.473
05:56 1016 30 845 24.95 11.7 53.1 65 5.5 41.8 11.96 0.471
05:57 1016 30 845 24.95 11.7 53.1 66 5.6 42 11.98 0.472
05:58 1016 30 845 24.95 11.6 53 66 5.5 42 11.89 0.468
05:59 1016 30 845 24.95 11.5 52.8 65 5.3 41.6 11.84 0.466
06:00 1016 30 845 24.95 11.6 52.8 66 5.5 41.9 11.83 0.466
06:01 1016 30 845 24.95 11.6 52.8 65 5.3 41.5 11.81 0.465
06:02 1016 30 845 24.95 11.5 52.8 65 5.2 41.4 11.79 0.464
06:03 1016 30 845 24.95 11.6 52.8 65 5.3 41.5 11.8 0.465
06:04 1016 30 845 24.95 11.6 52.9 65 5.3 41.5 11.8 0.465
06:05 1016 30 845 24.95 11.7 53 65 5.3 41.6 11.83 0.466
06:06 1016 30 845 24.95 11.8 53.2 65 5.3 41.6 11.85 0.467
06:07 1016 30 845 24.95 11.8 53.3 64 5.4 41.7 11.94 0.47
06:08 1016 30 845 24.95 11.9 53.4 64 5.3 41.6 11.97 0.471
06:09 1016 30 845 24.95 12 53.6 63 5.3 41.6 12.05 0.474
06:10 1016 30 845 24.95 12.1 53.7 63 5.3 41.6 12.1 0.476
06:11 1016 30 845 24.95 12.1 53.9 63 5.3 41.5 12.13 0.478
06:12 1016 30 845 24.95 12.2 53.9 62 5.2 41.4 12.2 0.48
06:13 1016 30 845 24.95 12.2 53.9 63 5.4 41.7 12.22 0.481
06:14 1016 30 845 24.95 12.2 53.9 63 5.4 41.7 12.27 0.483
06:15 1016 30 845 24.95 12.1 53.8 62 5.2 41.3 12.28 0.483
06:16 1016 30 845 24.95 12.1 53.8 62 5.2 41.4 12.23 0.481
06:17 1016 30 845 24.95 12 53.6 64 5.5 41.8 12.26 0.483
06:18 1016 30 845 24.95 11.9 53.4 66 5.7 42.3 12.17 0.479
06:19 1016 30 845 24.95 11.7 53.1 67 5.9 42.6 12.03 0.474
06:20 1016 30 845 24.95 11.5 52.7 70 6.4 43.4 11.89 0.468
06:21 1016 30 845 24.95 11.2 52.2 72 6.5 43.6 11.61 0.457
06:22 1016 30 845 24.95 10.9 51.7 74 6.6 43.8 11.29 0.444
06:23 1016 30 845 24.95 10.7 51.2 76 6.6 43.8 11.11 0.437
06:24 1016 30 845 24.95 10.5 51 75 6.4 43.5 10.93 0.43
06:25 1016 30 845 24.95 10.5 50.8 75 6.3 43.4 10.83 0.426
06:26 1016 30 845 24.95 10.4 50.8 76 6.4 43.6 10.84 0.427
06:27 1016 30 845 24.95 10.4 50.7 76 6.3 43.4 10.81 0.426
06:28 1016 30 845 24.95 10.4 50.7 77 6.5 43.8 10.83 0.426
06:29 1016 30 845 24.95 10.3 50.6 77 6.6 43.8 10.77 0.424
06:30 1016 30 845 24.95 10.3 50.6 77 6.5 43.7 10.75 0.423
06:31 1016 30 845 24.95 10.3 50.5 76 6.3 43.4 10.69 0.421
06:32 1016 30 845 24.95 10.4 50.6 76 6.3 43.3 10.76 0.424
06:33 1016 30 845 24.95 10.4 50.7 75 6.3 43.3 10.81 0.426
06:34 1016 30 845 24.95 10.5 50.8 75 6.3 43.4 10.86 0.428
06:35 1016 30 845 24.95 10.5 50.9 74 6.2 43.1 10.88 0.428
06:36 1016 30 845 24.95 10.6 51.1 74 6.2 43.2 10.99 0.433
06:37 1016 30 845 24.95 10.7 51.2 76 6.6 43.8 11.05 0.435
06:38 1016 30 845 24.95 10.6 51.1 76 6.7 44 11.06 0.435
06:39 1016 30 845 24.95 10.6 51 76 6.5 43.7 11 0.433
06:40 1016 30 845 24.95 10.6 51.1 74 6.2 43.2 11.02 0.434
06:41 1016 30 845 24.95 10.7 51.2 74 6.3 43.3 11.04 0.435
06:42 1016 30 845 24.95 10.8 51.4 74 6.4 43.5 11.17 0.44
06:43 1016 30 845 24.95 10.8 51.5 74 6.5 43.7 11.25 0.443
06:44 1016 30 845 24.95 10.9 51.7 74 6.5 43.8 11.28 0.444
06:45 1016 30 845 24.95 11 51.8 74 6.5 43.8 11.39 0.448
06:46 1016 30 845 24.95 11.1 51.9 74 6.7 44.1 11.42 0.45
06:47 1016 30 845 24.95 11.1 52 74 6.7 44 11.5 0.453
06:48 1016 30 845 24.95 11.2 52.1 74 6.7 44.1 11.55 0.455
06:49 1016 30 845 24.95 11.3 52.3 74 6.8 44.2 11.63 0.458
06:50 1016 30 845 24.95 11.5 52.7 73 6.9 44.4 11.8 0.465
06:51 1016 30 845 24.95 11.7 53 70 6.5 43.7 11.97 0.471
06:52 1016 30 845 24.95 11.9 53.4 71 6.7 44.1 12.16 0.479
06:53 1016 30 845 24.95 12.1 53.8 72 7.4 45.2 12.39 0.488
06:54 1016 30 845 24.95 12.3 54.2 69 6.9 44.5 12.64 0.498
06:55 1016 30 845 24.95 12.6 54.6 71 7.5 45.6 12.85 0.506
06:56 1016 30 845 24.95 12.8 55 67 6.9 44.5 13.04 0.513
06:57 1016 30 845 24.95 13 55.4 67 7 44.7 13.21 0.52
06:58 1016 30 845 24.95 13.1 55.6 66 6.9 44.4 13.4 0.528
06:59 1016 30 845 24.95 13.3 55.9 62 6.3 43.3 13.53 0.533
07:00 1016 30 845 24.95 13.4 56.2 60 6 42.8 13.66 0.538
07:01 1016 30 845 24.95 13.6 56.5 61 6.4 43.5 13.8 0.543
07:02 1016 30 845 24.95 13.7 56.7 64 7 44.6 13.97 0.55
07:03 1016 30 845 24.95 13.8 56.8 63 6.8 44.3 14.01 0.552
07:04 1016 30 845 24.95 13.8 56.9 64 7.2 45 14.12 0.556
07:05 1016 30 845 24.95 13.9 57 61 6.6 43.8 14.18 0.558
07:06 1016 30 845 24.95 13.9 57 60 6.4 43.5 14.21 0.559
07:07 1016 30 845 24.95 13.9 57 62 6.8 44.3 14.24 0.561
07:08 1016 30 845 24.95 13.9 56.9 62 6.7 44 14.24 0.561
07:09 1016 30 845 24.95 13.9 57 62 6.9 44.4 14.29 0.563
07:10 1016 30 845 24.95 14 57.1 62 7 44.5 14.32 0.564
07:11 1016 30 845 24.95 13.9 57 61 6.6 43.8 14.36 0.565
07:12 1016 30 845 24.95 13.9 57.1 62 6.7 44.1 14.32 0.564
07:13 1016 30 845 24.95 13.9 57 63 7.1 44.8 14.3 0.563
07:14 1015 29.97 845 24.95 13.9 56.9 62 6.8 44.3 14.28 0.562
07:15 1015 29.97 845 24.95 13.9 57.1 62 6.8 44.3 14.31 0.563
07:16 1016 30 845 24.95 14 57.2 62 6.8 44.2 14.38 0.566
07:17 1016 30 845 24.95 14.1 57.4 64 7.4 45.3 14.48 0.57
07:18 1015 29.97 845 24.95 14.2 57.6 61 7 44.6 14.59 0.574
07:19 1015 29.97 845 24.95 14.3 57.7 61 7 44.5 14.67 0.578
07:20 1015 29.97 845 24.95 14.4 57.9 59 6.6 43.9 14.78 0.582
07:21 1015 29.97 845 24.95 14.4 58 62 7.3 45.2 14.88 0.586
07:22 1015 29.97 845 24.95 14.6 58.2 60 7 44.7 14.97 0.589
07:23 1015 29.97 845 24.95 14.7 58.5 61 7.4 45.3 15.13 0.596
07:24 1015 29.97 845 24.95 14.8 58.7 61 7.4 45.3 15.24 0.6
07:25 1015 29.97 845 24.95 14.9 58.9 61 7.5 45.5 15.34 0.604
07:26 1015 29.97 845 24.95 15 59 55 6.2 43.2 15.37 0.605
07:27 1015 29.97 845 24.95 15.1 59.1 56 6.4 43.4 15.38 0.606
07:28 1015 29.97 845 24.95 15.1 59.2 59 7.1 44.8 15.41 0.607
07:29 1015 29.97 845 24.95 15.2 59.3 56 6.6 43.9 15.5 0.61
07:30 1015 29.97 845 24.95 15.3 59.5 53 5.9 42.6 15.63 0.615
07:31 1015 29.97 845 24.95 15.4 59.7 58 7.2 45 15.72 0.619
07:32 1015 29.97 845 24.95 15.5 59.9 58 7.3 45.1 15.91 0.626
07:33 1015 29.97 845 24.95 15.7 60.2 52 6 42.8 16.06 0.632
07:34 1015 29.97 845 24.95 15.7 60.3 53 6.3 43.4 16.19 0.637
07:35 1015 29.97 845 24.95 15.9 60.5 59 7.9 46.2 16.29 0.641
07:36 1015 29.97 845 24.95 15.9 60.6 56 7.2 45 16.4 0.646
07:37 1015 29.97 845 24.95 16 60.7 52 6.2 43.1 16.41 0.646
07:38 1015 29.97 845 24.95 15.9 60.6 50 5.6 42.1 16.32 0.643
07:39 1015 29.97 845 24.95 16 60.8 56 7.2 45 16.36 0.644
07:40 1015 29.97 844 24.92 16.1 61 53 6.6 44 16.54 0.651
07:41 1015 29.97 844 24.92 16.3 61.3 49 5.7 42.3 16.68 0.657
07:42 1015 29.97 844 24.92 16.5 61.6 49 5.7 42.3 16.82 0.662
07:43 1015 29.97 845 24.95 16.7 62 48 5.7 42.3 17.05 0.671
07:44 1015 29.97 845 24.95 16.9 62.5 48 6 42.7 17.35 0.683
07:45 1015 29.97 845 24.95 17.1 62.8 43 4.7 40.5 17.48 0.688
07:46 1015 29.97 845 24.95 17.1 62.9 50 6.7 44 17.57 0.692
07:47 1015 29.97 845 24.95 17.1 62.8 41 3.8 38.9 17.73 0.698
07:48 1015 29.97 845 24.95 17 62.6 43 4.4 39.9 17.77 0.7
07:49 1015 29.97 845 24.95 16.9 62.5 48 6 42.7 17.83 0.702
07:50 1015 29.97 845 24.95 16.9 62.3 46 5.1 41.3 17.79 0.7
07:51 1015 29.97 845 24.95 16.8 62.2 45 4.8 40.7 17.8 0.701
07:52 1015 29.97 845 24.95 16.7 62.1 49 6.2 43.1 17.67 0.696
07:53 1015 29.97 845 24.95 16.7 62 44 4.4 40 17.56 0.691
07:54 1015 29.97 845 24.95 16.7 62 45 4.7 40.4 17.42 0.686
07:55 1015 29.97 845 24.95 16.6 61.8 42 3.8 38.8 17.2 0.677
07:56 1015 29.97 845 24.95 16.6 61.8 45 4.7 40.4 17.22 0.678
07:57 1015 29.97 845 24.95 16.8 62.2 46 5.2 41.4 17.35 0.683
07:58 1015 29.97 845 24.95 16.9 62.4 44 4.7 40.4 17.54 0.691
07:59 1015 29.97 845 24.95 16.8 62.2 43 4.1 39.4 17.41 0.685
08:00 1015 29.97 845 24.95 16.7 62.1 46 5 41.1 17.34 0.683
08:01 1015 29.97 844 24.92 16.8 62.2 44 4.4 39.9 17.31 0.681
08:02 1015 29.97 844 24.92 16.6 61.9 46 5 41 17.2 0.677
08:03 1015 29.97 844 24.92 16.5 61.8 46 4.9 40.8 17.07 0.672
08:04 1015 29.97 844 24.92 16.5 61.8 45 4.8 40.6 17.09 0.673
08:05 1015 29.97 844 24.92 16.5 61.8 48 5.7 42.2 17.1 0.673
08:06 1015 29.97 844 24.92 16.5 61.7 49 6 42.8 17.06 0.672
08:07 1015 29.97 844 24.92 16.5 61.8 48 5.6 42.1 17.12 0.674
08:08 1015 29.97 844 24.92 16.5 61.8 43 4.1 39.3 17.06 0.672
08:09 1015 29.97 844 24.92 16.5 61.7 48 5.6 42.2 16.99 0.669
08:10 1015 29.97 844 24.92 16.5 61.8 48 5.6 42 16.97 0.668
08:11 1015 29.97 844 24.92 16.5 61.7 46 5.1 41.1 16.96 0.668
08:12 1015 29.97 844 24.92 16.5 61.8 49 6 42.8 16.96 0.668
08:13 1015 29.97 844 24.92 16.6 61.8 48 5.6 42 17.01 0.67
08:14 1015 29.97 844 24.92 16.6 62 46 5.2 41.4 17.08 0.672
08:15 1015 29.97 844 24.92 16.6 61.9 43 4 39.3 17.09 0.673
08:16 1015 29.97 844 24.92 16.7 62 47 5.3 41.6 17.12 0.674
08:17 1015 29.97 844 24.92 16.7 62.1 43 4.1 39.3 17.14 0.675
08:18 1015 29.97 844 24.92 16.8 62.2 43 4.3 39.7 17.21 0.678
08:19 1015 29.97 844 24.92 16.8 62.2 43 4.3 39.7 17.2 0.677
08:20 1015 29.97 844 24.92 16.8 62.2 53 7.3 45.2 17.24 0.679
08:21 1015 29.97 844 24.92 16.9 62.4 48 5.9 42.6 17.29 0.681
08:22 1015 29.97 844 24.92 16.9 62.4 46 5.3 41.6 17.27 0.68
08:23 1015 29.97 844 24.92 17 62.6 46 5.5 42 17.31 0.681
08:24 1015 29.97 844 24.92 17.1 62.7 43 4.5 40.1 17.36 0.683
08:25 1015 29.97 844 24.92 17.1 62.7 47 5.8 42.4 17.45 0.687
08:26 1015 29.97 844 24.92 17.2 63 42 4.3 39.8 17.48 0.688
08:27 1015 29.97 844 24.92 17.3 63.1 42 4.5 40 17.54 0.691
08:28 1015 29.97 844 24.92 17.5 63.4 44 5.3 41.5 17.6 0.693
08:29 1015 29.97 844 24.92 17.6 63.6 43 5.1 41.1 17.67 0.696
08:30 1015 29.97 844 24.92 17.7 63.8 45 5.8 42.4 17.74 0.698
08:31 1015 29.97 844 24.92 17.7 63.9 48 6.6 43.9 17.76 0.699
08:32 1015 29.97 844 24.92 17.8 64 49 7 44.6 17.82 0.702
08:33 1015 29.97 844 24.92 17.8 64 50 7.2 44.9 17.91 0.705
08:34 1015 29.97 844 24.92 17.9 64.2 47 6.5 43.6 17.98 0.708
08:35 1015 29.97 844 24.92 18 64.3 46 6.3 43.4 18 0.709
08:36 1015 29.97 844 24.92 18.1 64.5 45 6.2 43.1 18 0.709
08:37 1015 29.97 844 24.92 18 64.5 44 5.8 42.4 17.95 0.707
08:38 1015 29.97 844 24.92 18 64.4 45 5.9 42.7 17.92 0.706
08:39 1015 29.97 844 24.92 18 64.5 41 4.9 40.7 17.89 0.704
08:40 1015 29.97 844 24.92 18 64.4 43 5.4 41.7 17.87 0.704
08:41 1015 29.97 844 24.92 18 64.4 45 6 42.7 17.84 0.702
08:42 1015 29.97 844 24.92 17.9 64.2 47 6.5 43.6 17.81 0.701
08:43 1015 29.97 844 24.92 17.9 64.1 46 6.2 43.1 17.85 0.703
08:44 1015 29.97 844 24.92 17.8 64.1 44 5.4 41.7 17.87 0.704
08:45 1015 29.97 844 24.92 17.8 64.1 41 4.6 40.3 17.83 0.702
08:46 1015 29.97 844 24.92 17.9 64.3 42 5 40.9 17.83 0.702
08:47 1015 29.97 844 24.92 17.9 64.3 44 5.8 42.4 17.79 0.7
08:48 1015 29.97 844 24.92 17.9 64.3 44 5.7 42.3 17.81 0.701
08:49 1015 29.97 844 24.92 17.9 64.2 51 7.6 45.7 17.89 0.704
08:50 1015 29.97 844 24.92 17.9 64.1 45 5.8 42.4 17.73 0.698
08:51 1015 29.97 844 24.92 17.8 64 49 6.9 44.4 17.64 0.694
08:52 1015 29.97 844 24.92 17.7 63.9 46 6 42.8 17.73 0.698
08:53 1015 29.97 844 24.92 17.7 63.8 51 7.6 45.7 17.66 0.695
08:54 1015 29.97 844 24.92 17.6 63.6 45 5.6 42.1 17.61 0.693
08:55 1015 29.97 844 24.92 17.5 63.5 49 6.7 44.1 17.58 0.692
08:56 1015 29.97 844 24.92 17.5 63.6 48 6.5 43.7 17.67 0.696
08:57 1015 29.97 844 24.92 17.5 63.6 47 6.4 43.4 17.62 0.694
08:58 1015 29.97 844 24.92 17.4 63.3 54 8.1 46.5 17.49 0.689
08:59 1015 29.97 844 24.92 17.3 63.1 51 7.2 44.9 17.41 0.685
09:00 1015 29.97 844 24.92 17.2 63 52 7.5 45.4 17.31 0.681
09:01 1015 29.97 844 24.92 17.2 62.9 53 7.6 45.7 17.3 0.681
09:02 1015 29.97 844 24.92 17.2 62.9 53 7.6 45.7 17.34 0.683
09:03 1015 29.97 844 24.92 17.2 62.9 46 5.7 42.2 17.41 0.685
09:04 1015 29.97 844 24.92 17.1 62.9 56 8.5 47.3 17.3 0.681
09:05 1015 29.97 844 24.92 17.2 62.9 48 6.3 43.3 17.41 0.685
09:06 1015 29.97 844 24.92 17.1 62.8 49 6.6 43.8 17.29 0.681
09:07 1015 29.97 844 24.92 17.2 62.9 48 6.3 43.3 17.28 0.68
09:08 1015 29.97 844 24.92 17.1 62.8 51 7 44.5 17.29 0.681
09:09 1015 29.97 844 24.92 17.1 62.8 56 8.4 47.1 17.3 0.681
09:10 1015 29.97 844 24.92 17.1 62.8 55 8.1 46.6 17.34 0.683
09:11 1015 29.97 844 24.92 17.1 62.9 53 7.6 45.6 17.39 0.685
09:12 1015 29.97 844 24.92 17.3 63.1 52 7.5 45.4 17.44 0.687
09:13 1015 29.97 844 24.92 17.3 63.1 50 7 44.5 17.39 0.685
09:14 1015 29.97 844 24.92 17.3 63.1 46 5.8 42.5 17.45 0.687
09:15 1015 29.97 844 24.92 17.3 63.1 52 7.5 45.6 17.4 0.685
09:16 1015 29.97 844 24.92 17.3 63.1 47 6 42.8 17.44 0.687
09:17 1015 29.97 844 24.92 17.3 63.1 46 5.7 42.3 17.43 0.686
09:18 1015 29.97 844 24.92 17.3 63.1 52 7.5 45.4 17.48 0.688
09:19 1015 29.97 844 24.92 17.4 63.3 52 7.5 45.5 17.63 0.694
09:20 1015 29.97 844 24.92 17.5 63.4 49 6.9 44.4 17.63 0.694
09:21 1015 29.97 844 24.92 17.5 63.5 46 6 42.8 17.65 0.695
09:22 1015 29.97 844 24.92 17.5 63.5 45 5.5 41.8 17.62 0.694
09:23 1015 29.97 844 24.92 17.6 63.7 50 7.1 44.8 17.76 0.699
09:24 1015 29.97 844 24.92 17.6 63.7 53 8.1 46.5 17.63 0.694
09:25 1015 29.97 844 24.92 17.5 63.5 52 7.6 45.7 17.59 0.693
09:26 1015 29.97 844 24.92 17.5 63.4 56 8.7 47.6 17.58 0.692
09:27 1015 29.97 844 24.92 17.5 63.4 53 7.8 46 17.64 0.694
09:28 1015 29.97 844 24.92 17.5 63.4 52 7.5 45.5 17.65 0.695
09:29 1015 29.97 844 24.92 17.5 63.4 54 8.1 46.5 17.63 0.694
09:30 1015 29.97 844 24.92 17.5 63.4 55 8.3 47 17.66 0.695
09:31 1015 29.97 844 24.92 17.5 63.5 56 8.8 47.8 17.74 0.698
09:32 1015 29.97 844 24.92 17.6 63.7 50 7.1 44.8 17.76 0.699
09:33 1015 29.97 844 24.92 17.6 63.6 49 7 44.5 17.68 0.696
09:34 1015 29.97 844 24.92 17.5 63.5 47 6 42.9 17.66 0.695
09:35 1015 29.97 844 24.92 17.4 63.4 48 6.5 43.6 17.6 0.693
09:36 1015 29.97 844 24.92 17.5 63.4 48 6.5 43.7 17.68 0.696
09:37 1015 29.97 844 24.92 17.6 63.6 47 6.3 43.3 17.78 0.7
09:38 1015 29.97 844 24.92 17.7 63.8 48 6.8 44.2 17.78 0.7
09:39 1015 29.97 844 24.92 17.8 64 51 7.7 45.9 17.92 0.706
09:40 1015 29.97 844 24.92 17.8 64 50 7.2 45 17.96 0.707
09:41 1015 29.97 844 24.92 17.8 64 49 7 44.5 17.98 0.708
09:42 1015 29.97 844 24.92 17.8 64 52 7.9 46.2 17.93 0.706
09:43 1015 29.97 844 24.92 17.8 64.1 53 8.3 46.9 18.04 0.71
09:44 1015 29.97 844 24.92 17.9 64.1 47 6.5 43.7 17.95 0.707
09:45 1015 29.97 844 24.92 17.8 64 50 7.2 44.9 17.9 0.705
09:46 1015 29.97 844 24.92 17.8 64 46 6 42.9 17.96 0.707
09:47 1015 29.97 844 24.92 17.8 64 51 7.6 45.7 17.91 0.705
09:48 1015 29.97 844 24.92 17.8 64 47 6.5 43.8 17.94 0.706
09:49 1015 29.97 844 24.92 17.9 64.3 49 7.3 45.2 18.09 0.712
09:50 1015 29.97 844 24.92 18 64.5 51 7.8 46 18.16 0.715
09:51 1014 29.94 844 24.92 18 64.4 49 7.3 45.1 18.2 0.717
09:52 1014 29.94 844 24.92 18.1 64.6 52 8.2 46.8 18.29 0.72
09:53 1014 29.94 844 24.92 18.2 64.7 51 8.1 46.6 18.28 0.72
09:54 1014 29.94 844 24.92 18.2 64.7 45 6.2 43.2 18.36 0.723
09:55 1014 29.94 844 24.92 18.3 64.9 45 6.3 43.4 18.44 0.726
09:56 1014 29.94 844 24.92 18.3 65 50 7.8 46.1 18.52 0.729
09:57 1014 29.94 844 24.92 18.4 65.2 47 7.1 44.7 18.57 0.731
09:58 1014 29.94 844 24.92 18.4 65.2 46 6.7 44 18.5 0.728
09:59 1014 29.94 844 24.92 18.4 65.1 45 6.4 43.5 18.41 0.725
10:00 1014 29.94 844 24.92 18.4 65 46 6.7 44 18.37 0.723
10:01 1014 29.94 844 24.92 18.3 65 48 7.3 45.2 18.38 0.724
10:02 1014 29.94 844 24.92 18.4 65.1 47 6.9 44.5 18.38 0.724
10:03 1014 29.94 844 24.92 18.3 64.9 53 8.8 47.8 18.3 0.72
10:04 1014 29.94 844 24.92 18.3 65 45 6.4 43.5 18.34 0.722
10:05 1014 29.94 843 24.89 18.3 64.9 49 7.4 45.3 18.3 0.72
10:06 1014 29.94 843 24.89 18.3 64.9 47 6.8 44.2 18.35 0.722
10:07 1014 29.94 843 24.89 18.3 64.9 56 9.5 49.1 18.37 0.723
10:08 1014 29.94 843 24.89 18.4 65.1 44 6.2 43.2 18.47 0.727
10:09 1014 29.94 843 24.89 18.4 65.1 47 6.9 44.5 18.5 0.728
10:10 1014 29.94 843 24.89 18.4 65.1 43 5.8 42.4 18.61 0.733
10:11 1014 29.94 843 24.89 18.4 65 44 5.9 42.7 18.61 0.733
10:12 1014 29.94 843 24.89 18.4 65.1 55 9.2 48.6 18.65 0.734
10:13 1014 29.94 843 24.89 18.5 65.2 46 6.8 44.3 18.76 0.739
10:14 1014 29.94 843 24.89 18.6 65.4 54 9.1 48.4 18.83 0.741
10:15 1014 29.94 843 24.89 18.6 65.5 55 9.4 49 18.81 0.741
10:16 1014 29.94 843 24.89 18.6 65.6 45 6.5 43.8 18.81 0.741
10:17 1014 29.94 843 24.89 18.6 65.5 54 9.2 48.5 18.81 0.741
10:18 1014 29.94 843 24.89 18.6 65.5 51 8.4 47.1 18.79 0.74
10:19 1014 29.94 843 24.89 18.6 65.5 52 8.8 47.8 18.81 0.741
10:20 1014 29.94 843 24.89 18.7 65.6 47 7.3 45.2 18.9 0.744
10:21 1014 29.94 843 24.89 18.8 65.8 53 9 48.3 18.92 0.745
10:22 1014 29.94 843 24.89 18.8 65.8 48 7.8 46 18.9 0.744
10:23 1014 29.94 843 24.89 18.8 65.8 52 8.7 47.7 18.96 0.746
10:24 1014 29.94 843 24.89 18.9 66 54 9.4 49 19.1 0.752
10:25 1014 29.94 843 24.89 19 66.1 50 8.4 47.1 19.15 0.754
10:26 1014 29.94 843 24.89 19 66.2 43 6.4 43.6 19.16 0.754
10:27 1014 29.94 843 24.89 19 66.3 44 6.7 44 19.17 0.755
10:28 1014 29.94 843 24.89 19 66.2 42 5.8 42.5 19.21 0.756
10:29 1014 29.94 843 24.89 19.1 66.4 45 6.9 44.4 19.21 0.756
10:30 1014 29.94 843 24.89 19.2 66.6 42 6.1 43 19.31 0.76
10:31 1014 29.94 843 24.89 19.3 66.7 45 7.1 44.7 19.32 0.761
10:32 1014 29.94 843 24.89 19.2 66.6 49 8.4 47.1 19.34 0.761
10:33 1014 29.94 843 24.89 19.2 66.6 51 9.1 48.3 19.28 0.759
10:34 1014 29.94 843 24.89 19.1 66.5 44 6.8 44.2 19.25 0.758
10:35 1014 29.94 843 24.89 19.2 66.5 54 9.8 49.7 19.27 0.759
10:36 1014 29.94 843 24.89 19.3 66.7 50 8.7 47.6 19.33 0.761
10:37 1014 29.94 843 24.89 19.4 66.9 43 6.7 44.1 19.44 0.765
10:38 1014 29.94 843 24.89 19.4 66.9 47 7.8 46.1 19.37 0.763
10:39 1014 29.94 843 24.89 19.4 66.9 46 7.5 45.5 19.48 0.767
10:40 1014 29.94 843 24.89 19.4 66.9 44 7.1 44.7 19.45 0.766
10:41 1014 29.94 843 24.89 19.4 66.8 47 7.9 46.2 19.44 0.765
10:42 1014 29.94 843 24.89 19.4 66.9 43 6.5 43.7 19.55 0.77
10:43 1014 29.94 843 24.89 19.3 66.8 43 6.6 43.9 19.49 0.767
10:44 1014 29.94 843 24.89 19.3 66.8 44 6.9 44.5 19.44 0.765
10:45 1014 29.94 843 24.89 19.3 66.8 47 7.8 46.1 19.4 0.764
10:46 1014 29.94 843 24.89 19.4 66.8 42 6.3 43.3 19.4 0.764
10:47 1014 29.94 843 24.89 19.3 66.8 41 5.9 42.7 19.43 0.765
10:48 1014 29.94 843 24.89 19.4 66.9 41 5.9 42.7 19.51 0.768
10:49 1014 29.94 843 24.89 19.5 67.1 45 7.3 45.1 19.66 0.774
10:50 1014 29.94 843 24.89 19.6 67.3 46 7.8 46.1 19.78 0.779
10:51 1014 29.94 843 24.89 19.5 67.1 46 7.6 45.7 19.65 0.774
10:52 1014 29.94 843 24.89 19.5 67 48 8.2 46.8 19.64 0.773
10:53 1014 29.94 843 24.89 19.5 67 45 7.4 45.3 19.64 0.773
10:54 1014 29.94 843 24.89 19.5 67.1 45 7.5 45.4 19.69 0.775
10:55 1014 29.94 843 24.89 19.5 67.1 45 7.4 45.3 19.67 0.774
10:56 1014 29.94 843 24.89 19.6 67.2 46 7.9 46.3 19.75 0.778
10:57 1014 29.94 843 24.89 19.6 67.3 44 7.2 45 19.75 0.778
10:58 1014 29.94 843 24.89 19.8 67.6 43 7.1 44.8 19.97 0.786
10:59 1013 29.91 843 24.89 19.9 67.8 41 6.4 43.4 20.14 0.793
11:00 1013 29.91 843 24.89 20 68 43 7.2 44.9 20.16 0.794
11:01 1013 29.91 843 24.89 20 68.1 44 7.4 45.4 20.09 0.791
11:02 1013 29.91 843 24.89 20 68 46 8.2 46.8 20.09 0.791
11:03 1013 29.91 843 24.89 20 68 45 8 46.3 20.11 0.792
11:04 1013 29.91 843 24.89 20 68 49 9 48.2 20.12 0.792
11:05 1013 29.91 843 24.89 19.9 67.9 46 8 46.4 20.12 0.792
11:06 1013 29.91 843 24.89 20 67.9 49 8.9 48.1 20.18 0.794
11:07 1013 29.91 843 24.89 20.1 68.2 48 9 48.2 20.39 0.803
11:08 1013 29.91 843 24.89 20.2 68.4 46 8.4 47.1 20.47 0.806
11:09 1013 29.91 843 24.89 20.2 68.4 50 9.5 49.1 20.43 0.804
11:10 1013 29.91 843 24.89 20.2 68.3 43 7.3 45.2 20.37 0.802
11:11 1013 29.91 843 24.89 20.3 68.5 47 8.7 47.6 20.49 0.807
11:12 1013 29.91 843 24.89 20.4 68.8 46 8.4 47.2 20.58 0.81
11:13 1013 29.91 843 24.89 20.5 68.8 41 6.9 44.4 20.65 0.813
11:14 1013 29.91 843 24.89 20.3 68.6 46 8.4 47.1 20.61 0.811
11:15 1013 29.91 842 24.86 20.3 68.6 54 10.9 51.7 20.76 0.817
11:16 1013 29.91 842 24.86 20.4 68.7 45 8.1 46.5 20.78 0.818
11:17 1013 29.91 842 24.86 20.4 68.6 49 9.6 49.2 20.63 0.812
11:18 1013 29.91 842 24.86 20.3 68.5 49 9.3 48.8 20.62 0.812
11:19 1013 29.91 842 24.86 20.3 68.6 49 9.5 49.2 20.64 0.813
11:20 1013 29.91 842 24.86 20.4 68.7 43 7.5 45.5 20.75 0.817
11:21 1013 29.91 842 24.86 20.4 68.8 47 9 48.2 20.66 0.813
11:22 1013 29.91 842 24.86 20.4 68.7 42 7.3 45.1 20.65 0.813
11:23 1013 29.91 842 24.86 20.4 68.6 42 7.3 45.2 20.57 0.81
11:24 1013 29.91 842 24.86 20.3 68.5 54 10.9 51.6 20.55 0.809
11:25 1013 29.91 842 24.86 20.3 68.6 42 7 44.6 20.66 0.813
11:26 1013 29.91 842 24.86 20.4 68.7 48 9.1 48.4 20.62 0.812
11:27 1013 29.91 842 24.86 20.3 68.5 46 8.3 46.9 20.56 0.809
11:28 1013 29.91 842 24.86 20.3 68.6 47 8.9 48 20.61 0.811
11:29 1013 29.91 842 24.86 20.3 68.6 41 6.9 44.4 20.67 0.814
11:30 1013 29.91 842 24.86 20.2 68.4 42 7 44.7 20.7 0.815
11:31 1013 29.91 842 24.86 20.3 68.6 43 7.5 45.5 20.84 0.82
11:32 1013 29.91 842 24.86 20.5 68.8 48 9.3 48.8 20.99 0.826
11:33 1013 29.91 842 24.86 20.6 69.1 49 9.5 49.2 21.13 0.832
11:34 1013 29.91 842 24.86 20.7 69.3 45 8.6 47.5 21.26 0.837
11:35 1013 29.91 842 24.86 20.8 69.4 51 10.4 50.6 21.36 0.841
11:36 1013 29.91 842 24.86 20.9 69.7 50 10.3 50.6 21.52 0.847
11:37 1013 29.91 842 24.86 21 69.8 42 7.7 45.9 21.44 0.844
11:38 1013 29.91 842 24.86 21 69.7 43 7.9 46.3 21.31 0.839
11:39 1013 29.91 842 24.86 20.9 69.7 50 10.2 50.4 21.35 0.841
11:40 1013 29.91 842 24.86 21.1 69.9 48 9.7 49.4 21.41 0.843
11:41 1013 29.91 842 24.86 21.1 70 54 11.7 53 21.49 0.846
11:42 1013 29.91 842 24.86 21.2 70.2 40 7.4 45.3 21.62 0.851
11:43 1013 29.91 842 24.86 21.2 70.2 51 10.8 51.4 21.67 0.853
11:44 1013 29.91 842 24.86 21.2 70.2 48 10 50 21.63 0.852
11:45 1013 29.91 842 24.86 21.2 70.2 43 8.3 47 21.56 0.849
11:46 1013 29.91 842 24.86 21.2 70.2 49 10.2 50.4 21.67 0.853
11:47 1013 29.91 842 24.86 21.3 70.4 48 10.1 50.1 21.78 0.857
11:48 1013 29.91 842 24.86 21.4 70.4 55 12.2 53.9 21.85 0.86
11:49 1013 29.91 842 24.86 21.5 70.6 48 10 50.1 22.04 0.868
11:50 1013 29.91 842 24.86 21.7 71 52 11.6 52.9 22.28 0.877
11:51 1013 29.91 842 24.86 21.8 71.3 41 8.1 46.6 22.45 0.884
11:52 1013 29.91 842 24.86 21.9 71.4 47 10.3 50.6 22.39 0.881
11:53 1013 29.91 842 24.86 21.8 71.3 46 9.8 49.6 22.22 0.875
11:54 1013 29.91 842 24.86 21.6 70.9 45 9.5 49.1 22.02 0.867
11:55 1013 29.91 842 24.86 21.5 70.7 47 10 50 21.88 0.861
11:56 1013 29.91 842 24.86 21.4 70.5 41 7.8 46 21.76 0.857
11:57 1013 29.91 842 24.86 21.4 70.5 45 9.1 48.4 21.76 0.857
11:58 1013 29.91 842 24.86 21.4 70.5 48 10.1 50.2 21.88 0.861
11:59 1013 29.91 842 24.86 21.5 70.7 40 7.5 45.5 21.98 0.865
12:00 1013 29.91 842 24.86 21.6 70.8 39 7 44.7 22.02 0.867
12:01 1013 29.91 842 24.86 21.6 70.8 44 9.1 48.4 22.13 0.871
12:02 1013 29.91 842 24.86 21.6 70.9 50 11 51.7 22.18 0.873
12:03 1012 29.88 842 24.86 21.6 71 40 7.8 46 22.13 0.871
12:04 1012 29.88 842 24.86 21.7 71 47 9.9 49.8 22.08 0.869
12:05 1012 29.88 842 24.86 21.8 71.2 49 10.7 51.3 22.08 0.869
12:06 1012 29.88 842 24.86 21.9 71.4 52 11.7 53 22.24 0.876
12:07 1012 29.88 842 24.86 22.1 71.7 50 11.3 52.3 22.41 0.882
12:08 1012 29.88 842 24.86 22.1 71.7 42 8.8 47.8 22.32 0.879
12:09 1012 29.88 842 24.86 22 71.7 51 11.5 52.6 22.17 0.873
12:10 1012 29.88 842 24.86 22 71.6 46 10.1 50.2 22.2 0.874
12:11 1012 29.88 842 24.86 22 71.5 46 10 50 22.14 0.872
12:12 1012 29.88 842 24.86 21.9 71.4 46 9.7 49.5 22.09 0.87
12:13 1012 29.88 842 24.86 21.9 71.4 50 11.2 52.1 22.16 0.872
12:14 1012 29.88 842 24.86 22 71.5 38 7.1 44.8 22.09 0.87
12:15 1012 29.88 841 24.83 22 71.5 53 12.2 54 22.1 0.87
12:16 1012 29.88 841 24.83 22 71.6 47 10.3 50.5 22.27 0.877
12:17 1012 29.88 841 24.83 22.1 71.8 45 9.9 49.9 22.36 0.88
12:18 1012 29.88 841 24.83 22.1 71.8 37 6.9 44.5 22.33 0.879
12:19 1012 29.88 841 24.83 22.1 71.8 44 9.5 49 22.31 0.878
12:20 1012 29.88 841 24.83 22.1 71.8 49 11.1 51.9 22.38 0.881
12:21 1012 29.88 841 24.83 22.2 71.9 49 11.2 52.2 22.43 0.883
12:22 1012 29.88 841 24.83 22.2 72 44 9.7 49.4 22.45 0.884
12:23 1012 29.88 841 24.83 22.2 72 49 11.1 52.1 22.48 0.885
12:24 1012 29.88 841 24.83 22.2 72 45 9.9 49.9 22.44 0.883
12:25 1012 29.88 841 24.83 22.3 72.1 45 9.8 49.6 22.5 0.886
12:26 1012 29.88 841 24.83 22.3 72.2 47 10.6 51 22.56 0.888
12:27 1012 29.88 841 24.83 22.3 72.1 51 11.8 53.3 22.56 0.888
12:28 1012 29.88 841 24.83 22.4 72.3 46 10.5 50.9 22.68 0.893
12:29 1012 29.88 841 24.83 22.4 72.3 53 12.6 54.7 22.68 0.893
12:30 1012 29.88 841 24.83 22.4 72.4 44 9.6 49.3 22.72 0.894
12:31 1012 29.88 841 24.83 22.5 72.4 42 9.2 48.6 22.73 0.895
12:32 1012 29.88 841 24.83 22.4 72.4 46 10.6 51 22.69 0.893
12:33 1012 29.88 841 24.83 22.4 72.4 48 11.2 52.1 22.68 0.893
12:34 1012 29.88 841 24.83 22.5 72.4 50 11.7 53.1 22.71 0.894
12:35 1012 29.88 841 24.83 22.5 72.5 42 9.2 48.6 22.72 0.894
12:36 1012 29.88 841 24.83 22.5 72.6 45 10 50 22.78 0.897
12:37 1012 29.88 841 24.83 22.6 72.7 51 12 53.6 22.83 0.899
12:38 1012 29.88 841 24.83 22.7 72.9 44 10 50 22.81 0.898
12:39 1012 29.88 841 24.83 22.8 73 51 12.3 54.1 22.83 0.899
12:40 1012 29.88 841 24.83 22.8 73 48 11.2 52.2 22.85 0.9
12:41 1012 29.88 841 24.83 22.7 72.8 42 9.4 49 22.84 0.899
12:42 1012 29.88 841 24.83 22.6 72.7 50 11.8 53.2 22.76 0.896
12:43 1012 29.88 841 24.83 22.7 72.8 51 12.2 54 22.89 0.901
12:44 1012 29.88 841 24.83 22.7 72.9 46 10.7 51.3 22.94 0.903
12:45 1012 29.88 841 24.83 22.7 72.9 40 8.6 47.4 22.95 0.904
12:46 1012 29.88 841 24.83 22.7 72.8 43 9.5 49.1 22.9 0.902
12:47 1012 29.88 841 24.83 22.7 72.8 43 9.8 49.6 22.88 0.901
12:48 1012 29.88 841 24.83 22.8 73 47 11.1 52 22.96 0.904
12:49 1012 29.88 841 24.83 22.9 73.2 40 8.8 47.8 23.11 0.91
12:50 1012 29.88 841 24.83 22.9 73.2 44 10.1 50.1 23.13 0.911
12:51 1012 29.88 841 24.83 22.8 73 43 9.8 49.7 23.02 0.906
12:52 1012 29.88 841 24.83 22.7 72.9 40 8.6 47.5 23 0.906
12:53 1012 29.88 841 24.83 22.7 72.9 41 9 48.1 22.99 0.905
12:54 1012 29.88 841 24.83 22.8 73 46 10.8 51.4 23.07 0.908
12:55 1012 29.88 841 24.83 22.9 73.3 47 11.1 52 23.25 0.915
12:56 1012 29.88 841 24.83 23.1 73.5 44 10.2 50.4 23.36 0.92
12:57 1011 29.85 841 24.83 23.1 73.5 44 10.3 50.6 23.28 0.917
12:58 1011 29.85 841 24.83 23.1 73.5 45 10.6 51.1 23.37 0.92
12:59 1011 29.85 841 24.83 23.1 73.5 42 9.5 49.1 23.32 0.918
13:00 1011 29.85 841 24.83 23.1 73.5 45 10.7 51.3 23.33 0.919
13:01 1011 29.85 841 24.83 23.1 73.6 42 9.8 49.6 23.43 0.922
13:02 1011 29.85 840 24.81 23.1 73.6 36 7.4 45.4 23.4 0.921
13:03 1011 29.85 840 24.81 23.1 73.6 39 8.8 47.8 23.34 0.919
13:04 1011 29.85 841 24.83 23.2 73.7 40 9.1 48.4 23.44 0.923
13:05 1011 29.85 840 24.81 23.2 73.8 43 10.2 50.4 23.5 0.925
13:06 1011 29.85 840 24.81 23.4 74 51 13 55.3 23.67 0.932
13:07 1011 29.85 840 24.81 23.5 74.2 48 12.1 53.8 23.78 0.936
13:08 1011 29.85 840 24.81 23.6 74.5 45 11.1 52.1 23.95 0.943
13:09 1011 29.85 840 24.81 23.6 74.5 53 13.7 56.6 23.86 0.939
13:10 1011 29.85 840 24.81 23.6 74.5 43 10.6 51.1 23.93 0.942
13:11 1011 29.85 840 24.81 23.6 74.4 36 8 46.3 23.81 0.937
13:12 1011 29.85 840 24.81 23.5 74.4 44 10.9 51.6 23.77 0.936
13:13 1011 29.85 840 24.81 23.6 74.4 47 11.7 53 23.84 0.939
13:14 1011 29.85 840 24.81 23.6 74.5 38 8.9 48 23.95 0.943
13:15 1011 29.85 840 24.81 23.5 74.3 41 9.8 49.6 23.79 0.937
13:16 1011 29.85 840 24.81 23.4 74.2 41 9.7 49.5 23.7 0.933
13:17 1011 29.85 840 24.81 23.4 74.2 43 10.2 50.4 23.74 0.935
13:18 1011 29.85 840 24.81 23.6 74.4 44 10.7 51.2 23.87 0.94
13:19 1011 29.85 840 24.81 23.8 74.8 41 10 50.1 24.12 0.95
13:20 1011 29.85 840 24.81 23.9 75 36 8.2 46.8 24.24 0.954
13:21 1011 29.85 840 24.81 24 75.2 32 6.6 43.9 24.22 0.954
13:22 1011 29.85 840 24.81 24 75.1 34 7.2 45 24.19 0.952
13:23 1011 29.85 840 24.81 24 75.1 41 10.3 50.5 24.29 0.956
13:24 1011 29.85 840 24.81 24.1 75.3 43 10.8 51.4 24.41 0.961
13:25 1011 29.85 840 24.81 24.2 75.5 33 7.3 45.1 24.53 0.966
13:26 1011 29.85 840 24.81 24.3 75.7 33 7.2 45 24.52 0.965
13:27 1011 29.85 840 24.81 24.2 75.6 39 9.8 49.6 24.44 0.962
13:28 1011 29.85 840 24.81 24.1 75.4 39 9.4 49 24.42 0.961
13:29 1011 29.85 840 24.81 24.1 75.4 41 10.3 50.6 24.4 0.961
13:30 1011 29.85 840 24.81 24.1 75.4 39 9.4 48.9 24.4 0.961
13:31 1011 29.85 840 24.81 24.1 75.5 38 9.1 48.4 24.44 0.962
13:32 1011 29.85 840 24.81 24.2 75.5 35 8 46.4 24.48 0.964
13:33 1011 29.85 840 24.81 24.3 75.7 41 10.3 50.6 24.67 0.971
13:34 1011 29.85 840 24.81 24.4 75.9 38 9.5 49.1 24.67 0.971
13:35 1011 29.85 840 24.81 24.4 76 39 9.8 49.6 24.76 0.975
13:36 1011 29.85 840 24.81 24.4 75.9 45 11.8 53.2 24.69 0.972
13:37 1011 29.85 840 24.81 24.3 75.8 37 8.9 48.1 24.65 0.97
13:38 1011 29.85 840 24.81 24.3 75.7 45 11.7 53 24.58 0.968
13:39 1011 29.85 840 24.81 24.2 75.6 37 8.8 47.8 24.58 0.968
13:40 1011 29.85 840 24.81 24.2 75.6 38 9.3 48.7 24.54 0.966
13:41 1011 29.85 840 24.81 24.2 75.6 42 10.6 51.2 24.45 0.963
13:42 1011 29.85 840 24.81 24.3 75.7 39 9.7 49.4 24.62 0.969
13:43 1011 29.85 840 24.81 24.4 75.8 28 4.9 40.9 24.65 0.97
13:44 1011 29.85 840 24.81 24.4 75.9 33 7.1 44.8 24.66 0.971
13:45 1011 29.85 840 24.81 24.4 75.9 31 6.3 43.3 24.67 0.971
13:46 1011 29.85 840 24.81 24.4 75.9 36 8.4 47.2 24.65 0.97
13:47 1011 29.85 840 24.81 24.4 75.9 38 9.4 48.9 24.73 0.974
13:48 1011 29.85 840 24.81 24.5 76 39 9.8 49.6 24.74 0.974
13:49 1011 29.85 840 24.81 24.4 76 39 10 49.9 24.73 0.974
13:50 1010 29.83 840 24.81 24.5 76 37 9.2 48.5 24.8 0.976
13:51 1010 29.83 840 24.81 24.5 76.1 38 9.3 48.8 24.81 0.977
13:52 1010 29.83 840 24.81 24.5 76.1 36 8.6 47.4 24.83 0.978
13:53 1010 29.83 840 24.81 24.4 76 37 9 48.2 24.75 0.974
13:54 1010 29.83 840 24.81 24.2 75.6 37 8.7 47.6 24.45 0.963
13:55 1010 29.83 840 24.81 24 75.1 39 9.4 48.8 24.19 0.952
13:56 1010 29.83 840 24.81 23.7 74.7 37 8.2 46.8 23.99 0.944
13:57 1010 29.83 840 24.81 23.4 74.1 42 9.8 49.6 23.64 0.931
13:58 1010 29.83 840 24.81 23 73.4 40 8.9 48 23.3 0.917
13:59 1011 29.85 840 24.81 22.9 73.2 37 7.8 46 23.18 0.913
14:00 1010 29.83 840 24.81 22.9 73.3 42 9.6 49.3 23.32 0.918
14:01 1010 29.83 840 24.81 23.1 73.5 41 9.1 48.4 23.38 0.92
14:02 1010 29.83 840 24.81 23.1 73.5 45 10.6 51.2 23.42 0.922
14:03 1010 29.83 840 24.81 23.1 73.7 41 9.2 48.6 23.49 0.925
14:04 1010 29.83 840 24.81 23.1 73.6 44 10.5 50.9 23.49 0.925
14:05 1010 29.83 840 24.81 23.1 73.6 42 9.6 49.3 23.46 0.924
14:06 1010 29.83 840 24.81 23 73.5 44 10.4 50.8 23.3 0.917
14:07 1010 29.83 840 24.81 22.9 73.1 44 10.2 50.3 23.15 0.911
14:08 1010 29.83 840 24.81 22.6 72.7 42 9.3 48.7 22.92 0.902
14:09 1010 29.83 839 24.78 22.4 72.4 45 10 50.1 22.72 0.894
14:10 1010 29.83 839 24.78 22.3 72.2 42 9.1 48.4 22.62 0.891
14:11 1010 29.83 839 24.78 22.3 72.1 44 9.6 49.2 22.6 0.89
14:12 1010 29.83 839 24.78 22.3 72.1 44 9.8 49.6 22.68 0.893
14:13 1010 29.83 839 24.78 22.5 72.4 43 9.5 49.1 22.86 0.9
14:14 1010 29.83 839 24.78 22.5 72.4 47 10.7 51.3 22.77 0.896
14:15 1010 29.83 839 24.78 22.3 72.1 44 9.7 49.4 22.58 0.889
14:16 1010 29.83 839 24.78 22.1 71.7 45 9.9 49.8 22.4 0.882
14:17 1010 29.83 839 24.78 22 71.5 46 9.9 49.8 22.33 0.879
14:18 1010 29.83 839 24.78 21.9 71.4 47 10.3 50.5 22.21 0.874
14:19 1010 29.83 839 24.78 21.9 71.4 48 10.7 51.2 22.18 0.873
14:20 1010 29.83 839 24.78 21.9 71.5 45 9.5 49 22.29 0.878
14:21 1010 29.83 839 24.78 22 71.7 44 9.5 49.2 22.4 0.882
14:22 1010 29.83 839 24.78 22.2 71.9 46 10.2 50.3 22.5 0.886
14:23 1010 29.83 839 24.78 22.2 72 46 10.3 50.5 22.55 0.888
14:24 1010 29.83 839 24.78 22.3 72.1 49 11.2 52.1 22.66 0.892
14:25 1010 29.83 839 24.78 22.4 72.4 45 10.2 50.3 22.8 0.898
14:26 1010 29.83 839 24.78 22.4 72.4 47 10.7 51.2 22.76 0.896
14:27 1010 29.83 839 24.78 22.4 72.2 49 11.4 52.5 22.69 0.893
14:28 1010 29.83 839 24.78 22.3 72.1 46 10.2 50.3 22.6 0.89
14:29 1010 29.83 839 24.78 22.1 71.8 46 10 49.9 22.36 0.88
14:30 1010 29.83 839 24.78 21.9 71.5 46 10 50 22.21 0.874
14:31 1010 29.83 839 24.78 21.8 71.2 48 10.3 50.6 22.1 0.87
14:32 1010 29.83 839 24.78 21.7 71.1 47 10 50.1 22.07 0.869
14:33 1010 29.83 839 24.78 21.8 71.2 48 10.5 50.9 22.16 0.872
14:34 1010 29.83 839 24.78 21.9 71.4 50 11.1 51.9 22.29 0.878
14:35 1010 29.83 839 24.78 22 71.6 47 10.3 50.5 22.36 0.88
14:36 1010 29.83 839 24.78 22 71.6 47 10.5 50.8 22.36 0.88
14:37 1010 29.83 839 24.78 22 71.6 48 10.7 51.2 22.3 0.878
14:38 1010 29.83 839 24.78 21.8 71.2 47 10.3 50.5 22.08 0.869
14:39 1010 29.83 839 24.78 21.7 71 48 10.2 50.3 21.98 0.865
14:40 1010 29.83 839 24.78 21.6 70.8 49 10.7 51.3 21.91 0.863
14:41 1010 29.83 839 24.78 21.5 70.7 51 11.2 52.1 21.83 0.859
14:42 1010 29.83 839 24.78 21.4 70.6 49 10.5 50.8 21.72 0.855
14:43 1010 29.83 839 24.78 21.4 70.4 49 10.4 50.8 21.73 0.856
14:44 1010 29.83 839 24.78 21.3 70.4 50 10.6 51 21.67 0.853
14:45 1010 29.83 839 24.78 21.2 70.2 51 10.8 51.4 21.56 0.849
14:46 1010 29.83 839 24.78 21.2 70.1 51 10.7 51.2 21.51 0.847
14:47 1010 29.83 839 24.78 21.1 70 52 10.9 51.6 21.45 0.844
14:48 1010 29.83 839 24.78 21.1 69.9 53 11.3 52.4 21.4 0.843
14:49 1010 29.83 839 24.78 21 69.8 51 10.7 51.3 21.36 0.841
14:50 1010 29.83 839 24.78 21 69.9 49 10.1 50.2 21.4 0.843
14:51 1010 29.83 839 24.78 21.1 69.9 49 10.1 50.3 21.43 0.844
14:52 1010 29.83 839 24.78 21.1 70 49 10.1 50.2 21.49 0.846
14:53 1010 29.83 839 24.78 21.1 70 49 10.3 50.5 21.51 0.847
14:54 1010 29.83 839 24.78 21.1 70 51 10.7 51.3 21.47 0.845
14:55 1010 29.83 839 24.78 21.1 69.9 51 10.6 51.1 21.45 0.844
14:56 1010 29.83 839 24.78 21 69.9 53 11.3 52.3 21.43 0.844
14:57 1010 29.83 839 24.78 21.1 69.9 51 10.7 51.3 21.41 0.843
14:58 1010 29.83 839 24.78 21.1 69.9 52 10.8 51.5 21.4 0.843
14:59 1010 29.83 839 24.78 21 69.8 52 10.9 51.7 21.37 0.841
15:00 1010 29.83 839 24.78 21 69.8 52 10.8 51.5 21.33 0.84
15:01 1010 29.83 839 24.78 20.9 69.7 50 10.3 50.6 21.21 0.835
15:02 1010 29.83 839 24.78 20.9 69.5 51 10.6 51.1 21.22 0.835
15:03 1010 29.83 839 24.78 20.9 69.6 51 10.6 51 21.23 0.836
15:04 1010 29.83 839 24.78 20.9 69.6 53 11 51.8 21.2 0.835
15:05 1010 29.83 839 24.78 20.8 69.5 51 10.5 50.9 21.14 0.832
15:06 1010 29.83 839 24.78 20.8 69.4 53 10.9 51.7 21.12 0.831
15:07 1010 29.83 839 24.78 20.8 69.4 53 10.9 51.6 21.14 0.832
15:08 1010 29.83 839 24.78 20.8 69.4 53 10.9 51.6 21.14 0.832
15:09 1010 29.83 839 24.78 20.8 69.4 50 10.2 50.4 21.16 0.833
15:10 1010 29.83 839 24.78 20.9 69.6 50 10.3 50.5 21.2 0.835
15:11 1010 29.83 839 24.78 20.9 69.6 53 11 51.7 21.23 0.836
15:12 1010 29.83 839 24.78 20.9 69.5 50 10.3 50.6 21.17 0.833
15:13 1010 29.83 839 24.78 20.8 69.5 51 10.5 50.8 21.17 0.833
15:14 1010 29.83 839 24.78 20.8 69.4 53 10.9 51.6 21.18 0.834
15:15 1010 29.83 839 24.78 20.9 69.5 53 11.1 51.9 21.16 0.833
15:16 1010 29.83 839 24.78 20.8 69.4 52 10.8 51.4 21.17 0.833
15:17 1010 29.83 839 24.78 20.8 69.4 53 10.9 51.7 21.11 0.831
15:18 1010 29.83 839 24.78 20.7 69.3 52 10.6 51.1 21.07 0.83
15:19 1010 29.83 839 24.78 20.7 69.3 52 10.7 51.3 21.08 0.83
15:20 1010 29.83 839 24.78 20.8 69.4 52 10.8 51.5 21.09 0.83
15:21 1010 29.83 839 24.78 20.8 69.4 54 11.3 52.3 21.13 0.832
15:22 1010 29.83 839 24.78 20.7 69.3 53 11.1 51.9 21.1 0.831
15:23 1009 29.8 839 24.78 20.8 69.4 53 11.1 51.9 21.11 0.831
15:24 1009 29.8 839 24.78 20.7 69.3 52 10.8 51.4 21.09 0.83
15:25 1009 29.8 839 24.78 20.8 69.4 53 10.9 51.6 21.18 0.834
15:26 1009 29.8 839 24.78 20.8 69.5 51 10.5 50.9 21.18 0.834
15:27 1009 29.8 839 24.78 20.9 69.6 51 10.7 51.2 21.24 0.836
15:28 1009 29.8 839 24.78 20.8 69.5 51 10.4 50.8 21.14 0.832
15:29 1009 29.8 839 24.78 20.8 69.4 52 10.7 51.2 21.11 0.831
15:30 1009 29.8 839 24.78 20.7 69.3 51 10.4 50.7 21.04 0.828
15:31 1009 29.8 839 24.78 20.6 69.1 52 10.6 51.1 20.97 0.826
15:32 1009 29.8 839 24.78 20.6 69.1 52 10.7 51.2 21.04 0.828
15:33 1009 29.8 838 24.75 20.6 69.1 53 10.9 51.7 20.96 0.825
15:34 1009 29.8 838 24.75 20.5 69 54 10.9 51.7 20.89 0.822
15:35 1009 29.8 838 24.75 20.5 68.9 53 10.8 51.5 20.86 0.821
15:36 1009 29.8 838 24.75 20.5 68.9 53 10.7 51.3 20.92 0.824
15:37 1009 29.8 838 24.75 20.6 69 52 10.5 50.9 20.91 0.823
15:38 1009 29.8 838 24.75 20.5 69 52 10.5 50.9 20.94 0.824
15:39 1009 29.8 838 24.75 20.5 68.9 53 10.7 51.3 20.91 0.823
15:40 1009 29.8 838 24.75 20.5 68.9 54 10.9 51.7 20.88 0.822
15:41 1009 29.8 838 24.75 20.5 68.9 54 11 51.8 20.88 0.822
15:42 1009 29.8 838 24.75 20.5 68.9 53 10.8 51.4 20.89 0.822
15:43 1009 29.8 838 24.75 20.5 68.9 53 10.8 51.4 20.87 0.822
15:44 1009 29.8 838 24.75 20.5 69 53 10.9 51.6 20.9 0.823
15:45 1009 29.8 838 24.75 20.6 69 54 11 51.7 20.93 0.824
15:46 1009 29.8 838 24.75 20.6 69.1 55 11.2 52.2 20.94 0.824
15:47 1009 29.8 838 24.75 20.5 68.9 55 11.2 52.2 20.86 0.821
15:48 1009 29.8 838 24.75 20.5 68.9 55 11.4 52.5 20.87 0.822
15:49 1009 29.8 838 24.75 20.5 68.8 54 11 51.8 20.83 0.82
15:50 1009 29.8 838 24.75 20.5 69 54 11.1 51.9 20.9 0.823
15:51 1009 29.8 838 24.75 20.5 69 53 10.8 51.4 20.91 0.823
15:52 1009 29.8 838 24.75 20.6 69.1 53 10.9 51.6 20.94 0.824
15:53 1009 29.8 838 24.75 20.6 69.1 54 11.2 52.1 20.95 0.825
15:54 1009 29.8 838 24.75 20.5 68.9 54 11 51.8 20.83 0.82
15:55 1009 29.8 838 24.75 20.5 68.9 54 11.1 51.9 20.87 0.822
15:56 1009 29.8 838 24.75 20.5 68.9 53 10.8 51.5 20.9 0.823
15:57 1009 29.8 838 24.75 20.5 68.9 54 11 51.7 20.84 0.82
15:58 1009 29.8 838 24.75 20.4 68.8 54 10.9 51.6 20.77 0.818
15:59 1009 29.8 838 24.75 20.4 68.7 54 10.9 51.6 20.81 0.819
16:00 1009 29.8 838 24.75 20.4 68.7 54 10.9 51.5 20.73 0.816
16:01 1009 29.8 839 24.78 20.3 68.6 55 11.2 52.1 20.65 0.813
16:02 1009 29.8 839 24.78 20.3 68.5 55 11 51.8 20.61 0.811
16:03 1009 29.8 839 24.78 20.2 68.4 53 10.3 50.6 20.58 0.81
16:04 1009 29.8 839 24.78 20.2 68.4 53 10.4 50.6 20.61 0.811
16:05 1009 29.8 839 24.78 20.2 68.3 53 10.4 50.7 20.55 0.809
16:06 1009 29.8 839 24.78 20.2 68.3 53 10.3 50.5 20.55 0.809
16:07 1009 29.8 839 24.78 20.2 68.4 54 10.7 51.2 20.54 0.809
16:08 1009 29.8 839 24.78 20.2 68.3 53 10.5 51 20.56 0.809
16:09 1009 29.8 839 24.78 20.2 68.3 52 10.2 50.3 20.57 0.81
16:10 1009 29.8 839 24.78 20.3 68.5 53 10.4 50.7 20.64 0.813
16:11 1009 29.8 839 24.78 20.3 68.5 53 10.4 50.7 20.64 0.813
16:12 1009 29.8 839 24.78 20.2 68.4 54 10.7 51.2 20.57 0.81
16:13 1009 29.8 839 24.78 20.2 68.4 53 10.4 50.7 20.6 0.811
16:14 1009 29.8 839 24.78 20.2 68.4 53 10.5 50.8 20.57 0.81
16:15 1009 29.8 839 24.78 20.2 68.3 54 10.7 51.3 20.51 0.807
16:16 1009 29.8 839 24.78 20.2 68.3 53 10.3 50.5 20.5 0.807
16:17 1009 29.8 839 24.78 20.1 68.2 55 10.8 51.5 20.55 0.809
16:18 1009 29.8 839 24.78 20.1 68.2 54 10.7 51.3 20.45 0.805
16:19 1009 29.8 839 24.78 20.1 68.1 54 10.5 51 20.41 0.804
16:20 1009 29.8 839 24.78 20 68.1 54 10.6 51.1 20.4 0.803
16:21 1009 29.8 839 24.78 20.1 68.1 54 10.5 51 20.43 0.804
16:22 1009 29.8 839 24.78 20.1 68.1 54 10.6 51.1 20.46 0.806
16:23 1009 29.8 838 24.75 20.1 68.2 54 10.7 51.2 20.47 0.806
16:24 1009 29.8 838 24.75 20.1 68.3 54 10.7 51.3 20.5 0.807
16:25 1009 29.8 838 24.75 20.2 68.3 54 10.6 51 20.47 0.806
16:26 1009 29.8 838 24.75 20.2 68.3 53 10.3 50.5 20.54 0.809
16:27 1009 29.8 838 24.75 20.2 68.4 53 10.5 50.9 20.56 0.809
16:28 1009 29.8 838 24.75 20.2 68.4 55 11 51.8 20.57 0.81
16:29 1009 29.8 838 24.75 20.2 68.3 55 11 51.8 20.52 0.808
16:30 1009 29.8 838 24.75 20.2 68.3 54 10.8 51.4 20.52 0.808
16:31 1009 29.8 838 24.75 20.2 68.4 55 11 51.7 20.56 0.809
16:32 1009 29.8 838 24.75 20.2 68.3 55 11 51.8 20.58 0.81
16:33 1009 29.8 838 24.75 20.2 68.4 56 11.3 52.3 20.65 0.813
16:34 1009 29.8 838 24.75 20.4 68.6 56 11.3 52.3 20.71 0.815
16:35 1009 29.8 838 24.75 20.4 68.7 57 11.8 53.3 20.77 0.818
16:36 1009 29.8 838 24.75 20.5 68.9 56 11.6 52.8 20.9 0.823
16:37 1009 29.8 838 24.75 20.7 69.2 59 12.4 54.2 21.03 0.828
16:38 1009 29.8 838 24.75 20.8 69.4 56 11.8 53.3 21.14 0.832
16:39 1009 29.8 838 24.75 20.9 69.6 56 11.9 53.5 21.24 0.836
16:40 1009 29.8 838 24.75 20.9 69.7 56 11.9 53.5 21.26 0.837
16:41 1009 29.8 838 24.75 21 69.8 51 10.7 51.3 21.34 0.84
16:42 1009 29.8 838 24.75 21 69.8 51 10.7 51.2 21.39 0.842
16:43 1008 29.77 838 24.75 21.1 70 51 10.6 51.1 21.46 0.845
16:44 1009 29.8 838 24.75 21.1 70 54 11.6 52.9 21.46 0.845
16:45 1008 29.77 838 24.75 21.2 70.1 55 11.8 53.2 21.51 0.847
16:46 1008 29.77 838 24.75 21.2 70.2 51 10.9 51.5 21.59 0.85
16:47 1008 29.77 838 24.75 21.3 70.3 53 11.3 52.4 21.64 0.852
16:48 1008 29.77 838 24.75 21.4 70.4 52 11.3 52.3 21.74 0.856
16:49 1008 29.77 838 24.75 21.5 70.6 55 12.3 54.1 21.83 0.859
16:50 1008 29.77 838 24.75 21.7 71 52 11.4 52.5 22.07 0.869
16:51 1008 29.77 837 24.72 21.8 71.2 54 12.1 53.8 22.17 0.873
16:52 1008 29.77 837 24.72 21.9 71.3 51 11.5 52.8 22.2 0.874
16:53 1008 29.77 837 24.72 21.9 71.4 55 12.5 54.4 22.25 0.876
16:54 1008 29.77 837 24.72 22 71.6 50 11.4 52.5 22.36 0.88
16:55 1008 29.77 838 24.75 22 71.6 52 11.8 53.2 22.37 0.881
16:56 1008 29.77 838 24.75 22.1 71.8 52 12 53.6 22.42 0.883
16:57 1008 29.77 838 24.75 22.1 71.8 54 12.5 54.4 22.46 0.884
16:58 1008 29.77 838 24.75 22.2 72 51 11.7 53.1 22.6 0.89
16:59 1008 29.77 838 24.75 22.3 72.2 52 12.1 53.7 22.72 0.894
17:00 1008 29.77 838 24.75 22.4 72.3 53 12.4 54.3 22.74 0.895
17:01 1008 29.77 838 24.75 22.4 72.2 54 12.8 55 22.76 0.896
17:02 1008 29.77 838 24.75 22.3 72.1 51 11.7 53 22.61 0.89
17:03 1008 29.77 838 24.75 22.1 71.8 49 11 51.8 22.45 0.884
17:04 1008 29.77 838 24.75 22 71.5 50 11.1 52 22.3 0.878
17:05 1009 29.8 838 24.75 21.9 71.3 51 11.3 52.3 22.16 0.872
17:06 1009 29.8 838 24.75 21.7 71.1 51 11.2 52.2 22.04 0.868
17:07 1009 29.8 838 24.75 21.5 70.7 50 10.8 51.4 21.85 0.86
17:08 1009 29.8 838 24.75 21.4 70.5 52 11.2 52.2 21.72 0.855
17:09 1009 29.8 838 24.75 21.3 70.3 54 11.7 53.1 21.64 0.852
17:10 1009 29.8 838 24.75 21.3 70.3 53 11.3 52.4 21.59 0.85
17:11 1009 29.8 838 24.75 21.2 70.2 52 11.1 52 21.64 0.852
17:12 1009 29.8 838 24.75 21.3 70.4 56 12.2 54 21.67 0.853
17:13 1009 29.8 838 24.75 21.3 70.4 53 11.6 52.9 21.66 0.853
17:14 1009 29.8 838 24.75 21.3 70.4 55 12 53.7 21.69 0.854
17:15 1009 29.8 838 24.75 21.4 70.4 54 11.7 53.1 21.69 0.854
17:16 1009 29.8 838 24.75 21.4 70.4 50 10.6 51.1 21.71 0.855
17:17 1009 29.8 838 24.75 21.3 70.4 53 11.5 52.7 21.68 0.854
17:18 1009 29.8 838 24.75 21.3 70.3 51 10.8 51.4 21.64 0.852
17:19 1009 29.8 838 24.75 21.3 70.3 53 11.4 52.6 21.58 0.85
17:20 1009 29.8 838 24.75 21.2 70.2 50 10.6 51.2 21.55 0.848
17:21 1009 29.8 838 24.75 21.2 70.2 50 10.4 50.7 21.58 0.85
17:22 1009 29.8 838 24.75 21.3 70.3 49 10.3 50.6 21.63 0.852
17:23 1009 29.8 838 24.75 21.3 70.3 49 10.3 50.6 21.62 0.851
17:24 1009 29.8 838 24.75 21.3 70.3 49 10.4 50.7 21.63 0.852
17:25 1009 29.8 838 24.75 21.3 70.3 48 10 50 21.64 0.852
17:26 1009 29.8 838 24.75 21.4 70.4 49 10.3 50.6 21.72 0.855
17:27 1009 29.8 838 24.75 21.4 70.6 51 11 51.7 21.81 0.859
17:28 1009 29.8 838 24.75 21.5 70.6 48 10.2 50.3 21.82 0.859
17:29 1009 29.8 838 24.75 21.5 70.7 48 10.2 50.4 21.84 0.86
17:30 1009 29.8 838 24.75 21.5 70.7 50 10.7 51.2 21.86 0.861
17:31 1009 29.8 838 24.75 21.5 70.7 49 10.4 50.7 21.92 0.863
17:32 1009 29.8 838 24.75 21.6 70.9 50 10.9 51.7 22.02 0.867
17:33 1009 29.8 838 24.75 21.7 71 49 10.8 51.4 22.03 0.867
17:34 1009 29.8 838 24.75 21.7 71 49 10.5 51 22.04 0.868
17:35 1009 29.8 838 24.75 21.7 71.1 48 10.5 50.8 22.07 0.869
17:36 1009 29.8 838 24.75 21.8 71.2 51 11.3 52.4 22.12 0.871
17:37 1009 29.8 838 24.75 21.8 71.2 50 10.9 51.7 22.13 0.871
17:38 1009 29.8 838 24.75 21.8 71.3 48 10.6 51.1 22.19 0.874
17:39 1009 29.8 838 24.75 21.9 71.4 49 10.8 51.4 22.26 0.876
17:40 1009 29.8 838 24.75 22 71.6 51 11.5 52.7 22.33 0.879
17:41 1009 29.8 838 24.75 22.1 71.7 51 11.7 53.1 22.4 0.882
17:42 1009 29.8 838 24.75 22.2 71.9 48 10.8 51.4 22.54 0.887
17:43 1009 29.8 838 24.75 22.3 72.1 49 11.2 52.2 22.67 0.893
17:44 1009 29.8 838 24.75 22.4 72.3 50 11.6 52.9 22.69 0.893
17:45 1009 29.8 838 24.75 22.4 72.4 49 11.4 52.5 22.79 0.897
17:46 1009 29.8 838 24.75 22.5 72.5 46 10.4 50.7 22.88 0.901
17:47 1009 29.8 838 24.75 22.4 72.2 47 10.8 51.5 22.67 0.893
17:48 1009 29.8 838 24.75 22.1 71.9 47 10.6 51 22.48 0.885
17:49 1009 29.8 838 24.75 22 71.6 47 10.5 50.9 22.33 0.879
17:50 1009 29.8 838 24.75 21.8 71.3 49 10.9 51.6 22.18 0.873
17:51 1009 29.8 838 24.75 21.8 71.2 48 10.3 50.5 22.07 0.869
17:52 1009 29.8 838 24.75 21.7 71 47 10 49.9 22.01 0.867
17:53 1009 29.8 838 24.75 21.6 70.8 49 10.5 50.9 21.94 0.864
17:54 1009 29.8 838 24.75 21.5 70.7 49 10.5 51 21.88 0.861
17:55 1008 29.77 838 24.75 21.5 70.7 48 10.3 50.5 21.84 0.86
17:56 1008 29.77 838 24.75 21.4 70.4 44 8.6 47.5 21.64 0.852
17:57 1009 29.8 838 24.75 20.7 69.2 46 8.8 47.8 20.78 0.818
17:58 1009 29.8 838 24.75 19.8 67.7 49 9 48.2 20 0.787
17:59 1009 29.8 838 24.75 19.2 66.6 49 8.5 47.4 19.41 0.764
18:00 1009 29.8 838 24.75 18.9 66 49 8 46.4 19.1 0.752
18:01 1009 29.8 838 24.75 18.6 65.5 51 8.3 47 18.82 0.741
18:02 1009 29.8 838 24.75 18.3 65 52 8.4 47.2 18.59 0.732
18:03 1009 29.8 838 24.75 18.1 64.5 53 8.3 46.9 18.34 0.722
18:04 1009 29.8 838 24.75 17.9 64.1 51 7.7 45.9 18.12 0.713
18:05 1009 29.8 838 24.75 17.8 64 51 7.5 45.6 18.12 0.713
18:06 1009 29.8 838 24.75 17.8 64 52 8 46.4 18.13 0.714
18:07 1009 29.8 838 24.75 17.7 63.8 54 8.5 47.2 18.05 0.711
18:08 1009 29.8 838 24.75 17.6 63.7 54 8.3 47 17.99 0.708
18:09 1009 29.8 838 24.75 17.5 63.6 52 7.8 46 17.89 0.704
18:10 1009 29.8 838 24.75 17.5 63.4 52 7.6 45.6 17.87 0.704
18:11 1009 29.8 838 24.75 17.5 63.4 54 8.2 46.8 17.83 0.702
18:12 1009 29.8 838 24.75 17.4 63.3 53 7.8 46 17.75 0.699
18:13 1009 29.8 838 24.75 17.4 63.2 55 8.2 46.8 17.75 0.699
18:14 1009 29.8 838 24.75 17.3 63.1 55 8.2 46.7 17.64 0.694
18:15 1009 29.8 838 24.75 17.3 63.1 54 7.9 46.2 17.65 0.695
18:16 1009 29.8 838 24.75 17.2 63 57 8.6 47.5 17.61 0.693
18:17 1009 29.8 838 24.75 17.1 62.8 57 8.7 47.6 17.5 0.689
18:18 1009 29.8 839 24.78 17 62.5 58 8.8 47.8 17.33 0.682
18:19 1009 29.8 839 24.78 16.9 62.4 57 8.5 47.3 17.25 0.679
18:20 1009 29.8 839 24.78 16.7 62.1 59 8.7 47.7 17.1 0.673
18:21 1010 29.83 839 24.78 16.6 61.8 58 8.4 47.2 16.98 0.669
18:22 1010 29.83 839 24.78 16.4 61.6 61 9 48.1 16.81 0.662
18:23 1010 29.83 839 24.78 16.3 61.3 60 8.7 47.6 16.7 0.657
18:24 1010 29.83 839 24.78 16.2 61.2 61 8.7 47.7 16.58 0.653
18:25 1009 29.8 839 24.78 16.1 61.1 60 8.4 47.2 16.52 0.65
18:26 1010 29.83 839 24.78 16.1 61 59 8.1 46.5 16.47 0.648
18:27 1010 29.83 839 24.78 16 60.8 60 8.4 47.1 16.39 0.645
18:28 1010 29.83 839 24.78 16 60.7 59 8.2 46.7 16.32 0.643
18:29 1010 29.83 839 24.78 15.9 60.7 62 8.8 47.9 16.29 0.641
18:30 1010 29.83 839 24.78 15.9 60.6 60 8.1 46.6 16.2 0.638
18:31 1010 29.83 839 24.78 15.9 60.6 59 8 46.5 16.24 0.639
18:32 1010 29.83 839 24.78 16 60.8 58 7.8 46 16.37 0.644
18:33 1010 29.83 839 24.78 16 60.9 58 7.8 46 16.38 0.645
18:34 1009 29.8 839 24.78 16.1 60.9 58 7.8 46 16.44 0.647
18:35 1009 29.8 839 24.78 16.1 60.9 57 7.7 45.8 16.44 0.647
18:36 1009 29.8 839 24.78 16 60.8 62 8.7 47.7 16.41 0.646
18:37 1009 29.8 839 24.78 15.9 60.7 60 8.2 46.8 16.31 0.642
18:38 1009 29.8 839 24.78 15.9 60.6 58 7.7 45.9 16.28 0.641
18:39 1009 29.8 839 24.78 16 60.8 62 8.7 47.6 16.35 0.644
18:40 1009 29.8 839 24.78 16 60.7 59 7.9 46.3 16.3 0.642
18:41 1009 29.8 839 24.78 16 60.8 57 7.7 45.8 16.39 0.645
18:42 1009 29.8 839 24.78 16.1 61 56 7.5 45.5 16.51 0.65
18:43 1009 29.8 839 24.78 16.3 61.3 58 8.1 46.5 16.63 0.655
18:44 1009 29.8 839 24.78 16.4 61.4 55 7.3 45.1 16.74 0.659
18:45 1009 29.8 839 24.78 16.4 61.6 53 7 44.6 16.81 0.662
18:46 1009 29.8 839 24.78 16.6 61.8 55 7.6 45.6 16.9 0.665
18:47 1010 29.83 839 24.78 16.6 61.8 55 7.5 45.6 16.94 0.667
18:48 1010 29.83 839 24.78 16.6 61.8 58 8.3 46.9 16.91 0.666
18:49 1010 29.83 839 24.78 16.5 61.8 56 7.8 46 16.95 0.667
18:50 1010 29.83 839 24.78 16.5 61.8 56 7.9 46.2 16.91 0.666
18:51 1010 29.83 839 24.78 16.5 61.7 54 7.3 45.2 16.89 0.665
18:52 1010 29.83 839 24.78 16.5 61.6 52 6.6 44 16.86 0.664
18:53 1010 29.83 839 24.78 16.6 61.8 57 8 46.4 16.9 0.665
18:54 1010 29.83 839 24.78 16.6 61.9 53 7.2 44.9 16.93 0.667
18:55 1010 29.83 839 24.78 16.6 61.8 55 7.6 45.6 16.9 0.665
18:56 1010 29.83 839 24.78 16.6 61.8 58 8.2 46.8 16.9 0.665
18:57 1010 29.83 839 24.78 16.6 61.8 58 8.3 46.9 16.91 0.666
18:58 1010 29.83 839 24.78 16.6 61.8 59 8.6 47.4 16.88 0.665
18:59 1010 29.83 839 24.78 16.6 61.8 58 8.5 47.3 16.89 0.665
19:00 1010 29.83 839 24.78 16.6 61.8 57 8.2 46.7 16.91 0.666
19:01 1010 29.83 839 24.78 16.7 62 59 8.7 47.6 16.97 0.668
19:02 1010 29.83 839 24.78 16.7 62 56 8 46.4 16.99 0.669
19:03 1010 29.83 839 24.78 16.7 62.1 55 7.6 45.7 17.09 0.673
19:04 1010 29.83 839 24.78 16.8 62.2 55 7.9 46.2 17.1 0.673
19:05 1010 29.83 839 24.78 16.8 62.3 53 7.3 45.1 17.14 0.675
19:06 1010 29.83 839 24.78 16.8 62.3 55 7.8 46 17.18 0.676
19:07 1010 29.83 839 24.78 16.8 62.2 57 8.4 47.1 17.13 0.674
19:08 1010 29.83 839 24.78 16.7 62.1 52 6.9 44.4 17.01 0.67
19:09 1010 29.83 839 24.78 16.7 62 52 6.9 44.4 17 0.669
19:10 1010 29.83 839 24.78 16.7 62 54 7.5 45.5 16.98 0.669
19:11 1010 29.83 839 24.78 16.7 62 55 7.6 45.7 16.97 0.668
19:12 1010 29.83 839 24.78 16.6 61.9 55 7.8 46 16.93 0.667
19:13 1010 29.83 839 24.78 16.6 61.9 53 7.1 44.7 16.89 0.665
19:14 1010 29.83 839 24.78 16.6 61.9 53 7.2 44.9 16.91 0.666
19:15 1010 29.83 839 24.78 16.6 61.9 54 7.2 45 16.93 0.667
19:16 1010 29.83 839 24.78 16.6 61.9 55 7.5 45.6 16.93 0.667
19:17 1010 29.83 839 24.78 16.7 62 58 8.4 47.1 16.95 0.667
19:18 1010 29.83 839 24.78 16.6 62 56 7.9 46.2 17 0.669
19:19 1010 29.83 839 24.78 16.6 61.9 55 7.8 46 16.99 0.669
19:20 1010 29.83 839 24.78 16.6 62 51 6.6 43.9 16.98 0.669
19:21 1010 29.83 839 24.78 16.7 62.1 51 6.7 44.1 17.05 0.671
19:22 1010 29.83 839 24.78 16.8 62.3 52 7.1 44.8 17.15 0.675
19:23 1010 29.83 839 24.78 16.9 62.3 55 7.8 46.1 17.19 0.677
19:24 1010 29.83 839 24.78 16.9 62.4 51 6.9 44.4 17.21 0.678
19:25 1010 29.83 839 24.78 16.9 62.4 58 8.6 47.6 17.25 0.679
19:26 1010 29.83 839 24.78 16.8 62.3 53 7.2 44.9 17.21 0.678
19:27 1010 29.83 839 24.78 16.8 62.3 52 7 44.6 17.17 0.676
19:28 1010 29.83 839 24.78 16.8 62.2 52 7 44.7 17.22 0.678
19:29 1010 29.83 839 24.78 16.7 62.1 56 8.1 46.5 17.21 0.678
19:30 1010 29.83 839 24.78 16.7 62 51 6.7 44 17.14 0.675
19:31 1010 29.83 839 24.78 16.7 62 57 8.1 46.6 17.06 0.672
19:32 1010 29.83 839 24.78 16.6 62 57 8.1 46.6 17.04 0.671
19:33 1010 29.83 839 24.78 16.6 61.9 52 6.9 44.4 17.04 0.671
19:34 1010 29.83 839 24.78 16.5 61.8 54 7.4 45.3 16.94 0.667
19:35 1010 29.83 839 24.78 16.5 61.7 59 8.5 47.4 16.94 0.667
19:36 1010 29.83 839 24.78 16.4 61.5 60 8.6 47.4 16.79 0.661
19:37 1010 29.83 839 24.78 16.2 61.1 61 8.7 47.7 16.64 0.655
19:38 1010 29.83 840 24.81 16.1 61 55 7.2 44.9 16.48 0.649
19:39 1010 29.83 840 24.81 16.1 61.1 58 8 46.4 16.48 0.649
19:40 1010 29.83 840 24.81 16.1 61 61 8.7 47.7 16.47 0.648
19:41 1010 29.83 840 24.81 16 60.7 60 8.2 46.7 16.29 0.641
19:42 1010 29.83 840 24.81 15.8 60.5 63 9 48.2 16.2 0.638
19:43 1010 29.83 840 24.81 15.7 60.3 59 7.9 46.3 16.1 0.634
19:44 1010 29.83 840 24.81 15.7 60.2 63 8.7 47.6 16.04 0.631
19:45 1010 29.83 840 24.81 15.6 60.2 62 8.5 47.3 16 0.63
19:46 1010 29.83 840 24.81 15.6 60 66 9.2 48.6 15.94 0.628
19:47 1010 29.83 840 24.81 15.5 59.8 65 9.1 48.3 15.9 0.626
19:48 1010 29.83 840 24.81 15.4 59.6 66 9.1 48.5 15.77 0.621
19:49 1010 29.83 840 24.81 15.2 59.4 68 9.4 48.9 15.64 0.616
19:50 1010 29.83 840 24.81 15.2 59.3 69 9.6 49.2 15.59 0.614
19:51 1010 29.83 839 24.78 15.1 59.2 69 9.5 49.1 15.52 0.611
19:52 1010 29.83 839 24.78 15 59.1 66 8.9 48 15.42 0.607
19:53 1010 29.83 839 24.78 15 59 66 8.9 48 15.39 0.606
19:54 1010 29.83 839 24.78 15 59 65 8.5 47.3 15.39 0.606
19:55 1010 29.83 839 24.78 15 59 64 8.2 46.8 15.45 0.608
19:56 1010 29.83 839 24.78 15 59.1 67 9.1 48.3 15.44 0.608
19:57 1010 29.83 839 24.78 15.1 59.2 74 10.5 50.9 15.53 0.611
19:58 1010 29.83 839 24.78 15 59 66 8.7 47.7 15.56 0.613
19:59 1010 29.83 839 24.78 15 59.1 63 8.2 46.8 15.43 0.607
20:00 1010 29.83 839 24.78 15.1 59.1 68 9.3 48.7 15.45 0.608
20:01 1010 29.83 839 24.78 15.1 59.2 67 9.2 48.5 15.48 0.609
20:02 1010 29.83 839 24.78 15 59 68 9.1 48.5 15.44 0.608
20:03 1010 29.83 839 24.78 14.9 58.8 72 9.9 49.9 15.37 0.605
20:04 1010 29.83 839 24.78 14.7 58.5 71 9.7 49.4 15.31 0.603
20:05 1010 29.83 839 24.78 14.7 58.5 70 9.4 49 15.11 0.595
20:06 1010 29.83 839 24.78 14.6 58.4 71 9.5 49.2 15.06 0.593
20:07 1010 29.83 839 24.78 14.5 58.2 73 9.7 49.5 14.96 0.589
20:08 1010 29.83 839 24.78 14.4 58 73 9.7 49.4 14.89 0.586
20:09 1010 29.83 840 24.81 14.4 57.8 73 9.6 49.4 14.75 0.581
20:10 1010 29.83 839 24.78 14.3 57.7 73 9.6 49.3 14.73 0.58
20:11 1010 29.83 840 24.81 14.3 57.7 73 9.5 49.1 14.68 0.578
20:12 1010 29.83 839 24.78 14.3 57.7 72 9.4 48.8 14.63 0.576
20:13 1010 29.83 839 24.78 14.3 57.7 73 9.5 49.1 14.56 0.573
20:14 1010 29.83 839 24.78 14.2 57.6 75 10 50 14.59 0.574
20:15 1010 29.83 839 24.78 14.1 57.4 77 10.1 50.1 14.54 0.572
20:16 1010 29.83 839 24.78 14 57.2 72 9.1 48.4 14.37 0.566
20:17 1010 29.83 839 24.78 14 57.3 74 9.6 49.3 14.34 0.565
20:18 1010 29.83 839 24.78 14.1 57.3 75 9.8 49.7 14.36 0.565
20:19 1010 29.83 840 24.81 14 57.3 77 10.1 50.2 14.35 0.565
20:20 1010 29.83 840 24.81 13.9 57.1 79 10.3 50.6 14.26 0.561
20:21 1010 29.83 840 24.81 13.8 56.8 78 10.1 50.1 14.13 0.556
20:22 1010 29.83 840 24.81 13.7 56.7 78 9.9 49.8 14.08 0.554
20:23 1010 29.83 840 24.81 13.7 56.7 77 9.7 49.4 14.04 0.553
20:24 1010 29.83 840 24.81 13.7 56.6 76 9.5 49.1 14.06 0.554
20:25 1010 29.83 840 24.81 13.7 56.7 76 9.6 49.2 14.05 0.553
20:26 1010 29.83 839 24.78 13.8 56.8 76 9.6 49.2 14.13 0.556
20:27 1010 29.83 839 24.78 13.7 56.7 76 9.7 49.4 14.13 0.556
20:28 1010 29.83 839 24.78 13.7 56.7 77 9.8 49.6 14.1 0.555
20:29 1010 29.83 839 24.78 13.7 56.6 77 9.7 49.4 14.07 0.554
20:30 1010 29.83 839 24.78 13.6 56.5 77 9.6 49.3 13.98 0.55
20:31 1010 29.83 839 24.78 13.6 56.4 78 9.8 49.6 13.94 0.549
20:32 1010 29.83 839 24.78 13.4 56.2 78 9.6 49.3 13.83 0.544
20:33 1010 29.83 839 24.78 13.3 55.9 77 9.5 49 13.73 0.541
20:34 1010 29.83 839 24.78 13.3 55.9 77 9.5 49 13.66 0.538
20:35 1010 29.83 839 24.78 13.3 55.9 78 9.4 49 13.62 0.536
20:36 1010 29.83 839 24.78 13.2 55.7 78 9.4 49 13.56 0.534
20:37 1010 29.83 839 24.78 13.1 55.6 79 9.5 49.1 13.52 0.532
20:38 1010 29.83 839 24.78 13.1 55.5 79 9.5 49 13.41 0.528
20:39 1010 29.83 839 24.78 12.9 55.3 79 9.4 48.9 13.33 0.525
20:40 1010 29.83 839 24.78 12.8 55.1 79 9.3 48.7 13.22 0.52
20:41 1010 29.83 839 24.78 12.8 55 79 9.3 48.7 13.19 0.519
20:42 1010 29.83 839 24.78 12.8 55 79 9.3 48.7 13.11 0.516
20:43 1010 29.83 839 24.78 12.7 54.9 80 9.3 48.8 13.07 0.515
20:44 1010 29.83 839 24.78 12.6 54.7 80 9.3 48.8 12.98 0.511
20:45 1010 29.83 839 24.78 12.5 54.4 81 9.3 48.8 12.86 0.506
20:46 1010 29.83 839 24.78 12.4 54.2 81 9.2 48.6 12.75 0.502
20:47 1010 29.83 839 24.78 12.3 54.2 82 9.3 48.7 12.7 0.5
20:48 1010 29.83 839 24.78 12.3 54.1 82 9.3 48.7 12.66 0.498
20:49 1010 29.83 839 24.78 12.3 54.1 81 9.2 48.6 12.65 0.498
20:50 1010 29.83 839 24.78 12.3 54.2 80 9.1 48.4 12.71 0.5
20:51 1010 29.83 839 24.78 12.5 54.4 80 9.1 48.5 12.85 0.506
20:52 1010 29.83 839 24.78 12.5 54.5 80 9.1 48.4 12.88 0.507
20:53 1010 29.83 839 24.78 12.5 54.5 80 9.1 48.4 12.88 0.507
20:54 1010 29.83 839 24.78 12.4 54.4 79 9 48.2 12.83 0.505
20:55 1010 29.83 839 24.78 12.5 54.5 78 8.9 48 12.83 0.505
20:56 1010 29.83 839 24.78 12.5 54.6 79 8.9 48.1 12.87 0.507
20:57 1010 29.83 839 24.78 12.5 54.5 79 9 48.1 12.86 0.506
20:58 1010 29.83 839 24.78 12.4 54.3 79 8.8 47.9 12.76 0.502
20:59 1010 29.83 839 24.78 12.4 54.2 79 8.8 47.9 12.74 0.502
21:00 1010 29.83 839 24.78 12.3 54.1 80 8.9 47.9 12.62 0.497
21:01 1010 29.83 839 24.78 12.1 53.8 80 8.9 48 12.55 0.494
21:02 1010 29.83 839 24.78 12 53.6 81 8.9 48 12.42 0.489
21:03 1010 29.83 839 24.78 11.8 53.3 82 8.9 48 12.23 0.481
21:04 1010 29.83 839 24.78 11.7 53 83 9 48.1 12.09 0.476
21:05 1010 29.83 839 24.78 11.5 52.6 84 8.9 48 11.9 0.469
21:06 1010 29.83 839 24.78 11.4 52.4 84 8.8 47.9 11.71 0.461
21:07 1010 29.83 839 24.78 11.2 52.2 85 8.8 47.9 11.62 0.457
21:08 1010 29.83 839 24.78 11.2 52.2 85 8.8 47.9 11.55 0.455
21:09 1010 29.83 839 24.78 11.2 52.1 86 8.9 48 11.61 0.457
21:10 1010 29.83 839 24.78 11.2 52.2 86 8.9 48.1 11.57 0.456
21:11 1010 29.83 839 24.78 11.2 52.2 86 8.9 48.1 11.59 0.456
21:12 1010 29.83 839 24.78 11.2 52.1 86 9 48.2 11.59 0.456
21:13 1010 29.83 839 24.78 11.1 52 87 9 48.2 11.53 0.454
21:14 1010 29.83 839 24.78 11.1 52 87 9 48.2 11.48 0.452
21:15 1010 29.83 839 24.78 11 51.9 87 9 48.1 11.42 0.45
21:16 1010 29.83 839 24.78 11 51.7 88 9 48.2 11.37 0.448
21:17 1010 29.83 839 24.78 10.9 51.6 88 9 48.2 11.32 0.446
21:18 1010 29.83 839 24.78 10.8 51.5 88 8.9 48.1 11.21 0.441
21:19 1010 29.83 839 24.78 10.8 51.4 88 8.9 48 11.13 0.438
21:20 1010 29.83 839 24.78 10.7 51.3 89 8.9 48.1 11.08 0.436
21:21 1010 29.83 839 24.78 10.7 51.3 89 9 48.1 11.1 0.437
21:22 1010 29.83 839 24.78 10.7 51.3 88 8.9 48 11.1 0.437
21:23 1010 29.83 839 24.78 10.7 51.3 89 8.9 48 11.03 0.434
21:24 1010 29.83 839 24.78 10.8 51.4 88 8.9 48.1 11.12 0.438
21:25 1010 29.83 839 24.78 11 51.7 88 9.1 48.4 11.26 0.443
21:26 1010 29.83 839 24.78 11.1 51.9 88 9.1 48.4 11.4 0.449
21:27 1010 29.83 839 24.78 11.2 52.2 87 9.2 48.6 11.54 0.454
21:28 1010 29.83 839 24.78 11.4 52.5 87 9.3 48.7 11.67 0.459
21:29 1010 29.83 839 24.78 11.6 52.8 86 9.3 48.8 11.84 0.466
21:30 1010 29.83 839 24.78 11.6 52.9 86 9.3 48.8 11.9 0.469
21:31 1010 29.83 839 24.78 11.7 53 85 9.3 48.8 12.01 0.473
21:32 1010 29.83 839 24.78 11.7 53.1 85 9.3 48.8 12.03 0.474
21:33 1010 29.83 839 24.78 11.7 53.1 85 9.4 48.8 12.05 0.474
21:34 1010 29.83 839 24.78 11.7 53 85 9.3 48.8 12.04 0.474
21:35 1010 29.83 839 24.78 11.6 53 86 9.3 48.8 12.01 0.473
21:36 1010 29.83 839 24.78 11.6 52.9 85 9.3 48.7 11.97 0.471
21:37 1010 29.83 839 24.78 11.7 53 85 9.3 48.7 12.01 0.473
21:38 1010 29.83 839 24.78 11.7 53.1 85 9.3 48.7 12.05 0.474
21:39 1010 29.83 839 24.78 11.8 53.2 85 9.3 48.7 12.06 0.475
21:40 1010 29.83 839 24.78 11.8 53.2 84 9.3 48.7 12.11 0.477
21:41 1010 29.83 839 24.78 11.8 53.2 84 9.3 48.7 12.13 0.478
21:42 1010 29.83 839 24.78 11.9 53.3 84 9.2 48.5 12.16 0.479
21:43 1010 29.83 839 24.78 11.9 53.5 83 9.1 48.4 12.16 0.479
21:44 1010 29.83 839 24.78 12.1 53.7 83 9.2 48.6 12.32 0.485
21:45 1010 29.83 839 24.78 12.1 53.8 83 9.3 48.7 12.4 0.488
21:46 1010 29.83 839 24.78 12.1 53.9 83 9.3 48.7 12.45 0.49
21:47 1010 29.83 839 24.78 12.1 53.8 83 9.3 48.7 12.44 0.49
21:48 1010 29.83 839 24.78 12.1 53.8 83 9.2 48.6 12.42 0.489
21:49 1010 29.83 839 24.78 12.1 53.8 83 9.3 48.7 12.44 0.49
21:50 1010 29.83 839 24.78 12.1 53.8 82 9.2 48.5 12.42 0.489
21:51 1010 29.83 839 24.78 12.1 53.8 83 9.3 48.7 12.44 0.49
21:52 1010 29.83 839 24.78 12.1 53.9 83 9.3 48.8 12.48 0.491
21:53 1010 29.83 839 24.78 12.1 53.8 83 9.3 48.8 12.48 0.491
21:54 1010 29.83 839 24.78 12.1 53.8 83 9.4 48.9 12.5 0.492
21:55 1010 29.83 839 24.78 12.1 53.8 83 9.4 48.9 12.45 0.49
21:56 1010 29.83 839 24.78 12.1 53.8 84 9.4 49 12.42 0.489
21:57 1010 29.83 839 24.78 12 53.6 84 9.4 48.8 12.34 0.486
21:58 1010 29.83 839 24.78 11.9 53.3 84 9.3 48.7 12.27 0.483
21:59 1010 29.83 839 24.78 11.8 53.3 84 9.3 48.7 12.18 0.48
22:00 1010 29.83 839 24.78 11.8 53.2 84 9.3 48.7 12.1 0.476
22:01 1010 29.83 839 24.78 11.8 53.2 83 9 48.2 12.11 0.477
22:02 1010 29.83 839 24.78 11.8 53.3 82 8.9 48.1 12.18 0.48
22:03 1010 29.83 839 24.78 12 53.5 81 8.8 47.8 12.27 0.483
22:04 1010 29.83 839 24.78 12.1 53.8 81 8.9 48.1 12.4 0.488
22:05 1010 29.83 839 24.78 12.2 53.9 80 8.9 48 12.52 0.493
22:06 1010 29.83 839 24.78 12.2 54 81 9 48.2 12.58 0.495
22:07 1010 29.83 839 24.78 12.2 54 80 9 48.1 12.56 0.494
22:08 1010 29.83 839 24.78 12.3 54.1 80 9 48.2 12.58 0.495
22:09 1010 29.83 839 24.78 12.3 54.1 81 9.1 48.4 12.58 0.495
22:10 1010 29.83 839 24.78 12.2 53.9 81 9.1 48.3 12.55 0.494
22:11 1010 29.83 839 24.78 12.2 53.9 81 9.1 48.4 12.5 0.492
22:12 1010 29.83 839 24.78 12.2 53.9 82 9.1 48.4 12.53 0.493
22:13 1010 29.83 839 24.78 12.2 53.9 82 9.2 48.5 12.51 0.493
22:14 1010 29.83 839 24.78 12.2 53.9 81 9.1 48.3 12.48 0.491
22:15 1010 29.83 839 24.78 12.2 53.9 82 9.1 48.4 12.51 0.493
22:16 1010 29.83 839 24.78 12.2 53.9 80 8.9 48.1 12.5 0.492
22:17 1010 29.83 839 24.78 12.2 54 79 8.8 47.8 12.63 0.497
22:18 1010 29.83 839 24.78 12.3 54.2 79 8.8 47.8 12.69 0.5
22:19 1010 29.83 839 24.78 12.4 54.3 78 8.6 47.6 12.8 0.504
22:20 1010 29.83 839 24.78 12.5 54.5 70 7.3 45.2 12.87 0.507
22:21 1010 29.83 839 24.78 12.7 54.9 70 7.4 45.2 13.05 0.514
22:22 1010 29.83 839 24.78 12.9 55.3 71 7.8 46 13.26 0.522
22:23 1010 29.83 839 24.78 13 55.4 70 7.7 45.8 13.39 0.527
22:24 1010 29.83 839 24.78 13.1 55.5 69 7.6 45.8 13.41 0.528
22:25 1010 29.83 839 24.78 13.1 55.5 71 8 46.3 13.45 0.53
22:26 1010 29.83 839 24.78 13 55.4 69 7.5 45.5 13.4 0.528
22:27 1010 29.83 839 24.78 13 55.4 69 7.6 45.6 13.39 0.527
22:28 1010 29.83 839 24.78 12.9 55.2 69 7.5 45.4 13.29 0.523
22:29 1010 29.83 839 24.78 12.8 55 70 7.6 45.7 13.21 0.52
22:30 1010 29.83 839 24.78 12.7 54.9 69 7.2 44.9 13.12 0.517
22:31 1010 29.83 839 24.78 12.7 54.9 70 7.4 45.4 13.06 0.514
22:32 1010 29.83 839 24.78 12.7 54.8 70 7.3 45.2 13.07 0.515
22:33 1010 29.83 839 24.78 12.6 54.7 70 7.4 45.3 13 0.512
22:34 1010 29.83 839 24.78 12.6 54.6 69 7 44.6 12.93 0.509
22:35 1010 29.83 839 24.78 12.5 54.5 69 7 44.6 12.91 0.508
22:36 1010 29.83 839 24.78 12.5 54.5 68 6.8 44.3 12.88 0.507
22:37 1010 29.83 839 24.78 12.5 54.6 69 7.1 44.7 12.94 0.509
22:38 1010 29.83 839 24.78 12.5 54.4 70 7.2 45 12.87 0.507
22:39 1010 29.83 839 24.78 12.4 54.3 68 6.7 44 12.79 0.504
22:40 1010 29.83 839 24.78 12.4 54.4 70 7.1 44.8 12.81 0.504
22:41 1010 29.83 839 24.78 12.4 54.4 69 7.1 44.7 12.79 0.504
22:42 1010 29.83 839 24.78 12.4 54.3 71 7.3 45.1 12.77 0.503
22:43 1010 29.83 839 24.78 12.3 54.2 71 7.3 45.2 12.7 0.5
22:44 1010 29.83 839 24.78 12.2 54 71 7.2 45 12.67 0.499
22:45 1010 29.83 839 24.78 12.2 53.9 71 7.1 44.7 12.61 0.496
22:46 1010 29.83 839 24.78 12.2 53.9 72 7.3 45.1 12.57 0.495
22:47 1010 29.83 839 24.78 12.2 53.9 69 6.6 43.9 12.58 0.495
22:48 1010 29.83 839 24.78 12.2 53.9 71 7.1 44.8 12.56 0.494
22:49 1010 29.83 839 24.78 12.2 54 71 7.1 44.7 12.58 0.495
22:50 1010 29.83 839 24.78 12.2 53.9 71 7.1 44.7 12.57 0.495
22:51 1010 29.83 839 24.78 12.2 53.9 71 7.1 44.7 12.58 0.495
22:52 1010 29.83 839 24.78 12.2 53.9 71 7.2 44.9 12.56 0.494
22:53 1010 29.83 839 24.78 12.1 53.9 72 7.2 45 12.53 0.493
22:54 1010 29.83 839 24.78 12.1 53.8 72 7.2 44.9 12.5 0.492
22:55 1010 29.83 839 24.78 12 53.7 73 7.4 45.4 12.45 0.49
22:56 1010 29.83 839 24.78 12 53.6 71 6.9 44.5 12.43 0.489
22:57 1010 29.83 839 24.78 12 53.6 72 7.1 44.7 12.4 0.488
22:58 1010 29.83 839 24.78 12 53.6 72 7.2 44.9 12.41 0.489
22:59 1010 29.83 839 24.78 12 53.6 72 7.2 45 12.41 0.489
23:00 1010 29.83 839 24.78 12 53.6 73 7.4 45.3 12.4 0.488
23:01 1010 29.83 839 24.78 12 53.5 73 7.3 45.2 12.38 0.487
23:02 1010 29.83 839 24.78 12 53.5 73 7.4 45.3 12.39 0.488
23:03 1010 29.83 839 24.78 11.9 53.5 74 7.4 45.3 12.35 0.486
23:04 1010 29.83 839 24.78 12 53.5 74 7.4 45.4 12.35 0.486
23:05 1010 29.83 839 24.78 11.9 53.5 74 7.5 45.5 12.34 0.486
23:06 1010 29.83 839 24.78 11.9 53.5 74 7.5 45.5 12.36 0.487
23:07 1010 29.83 839 24.78 11.9 53.4 74 7.5 45.4 12.34 0.486
23:08 1010 29.83 839 24.78 11.9 53.4 73 7.3 45.1 12.32 0.485
23:09 1010 29.83 839 24.78 11.9 53.4 74 7.4 45.4 12.32 0.485
23:10 1010 29.83 839 24.78 11.9 53.5 74 7.5 45.5 12.34 0.486
23:11 1010 29.83 839 24.78 11.9 53.4 74 7.4 45.3 12.3 0.484
23:12 1010 29.83 839 24.78 11.9 53.4 74 7.5 45.5 12.3 0.484
23:13 1010 29.83 839 24.78 11.9 53.5 71 6.9 44.4 12.28 0.483
23:14 1010 29.83 839 24.78 12.1 53.7 70 6.8 44.2 12.42 0.489
23:15 1010 29.83 839 24.78 12.1 53.8 70 6.9 44.5 12.5 0.492
23:16 1010 29.83 840 24.81 12.2 53.9 71 7.1 44.8 12.54 0.494
23:17 1010 29.83 840 24.81 12.2 54 71 7.2 44.9 12.59 0.496
23:18 1010 29.83 840 24.81 12.2 53.9 70 6.9 44.4 12.58 0.495
23:19 1010 29.83 840 24.81 12.2 53.9 69 6.7 44 12.55 0.494
23:20 1010 29.83 840 24.81 12.2 54 68 6.4 43.6 12.57 0.495
23:21 1010 29.83 840 24.81 12.3 54.1 66 6.2 43.2 12.64 0.498
23:22 1010 29.83 840 24.81 12.4 54.3 65 6.1 43 12.67 0.499
23:23 1011 29.85 840 24.81 12.5 54.4 65 6.2 43.2 12.74 0.502
23:24 1010 29.83 840 24.81 12.5 54.5 66 6.5 43.6 12.82 0.505
23:25 1011 29.85 840 24.81 12.5 54.4 63 5.7 42.3 12.84 0.506
23:26 1010 29.83 840 24.81 12.6 54.6 64 6 42.7 12.9 0.508
23:27 1011 29.85 840 24.81 12.6 54.7 65 6.4 43.5 13.02 0.513
23:28 1011 29.85 840 24.81 12.6 54.7 65 6.3 43.3 13.01 0.512
23:29 1011 29.85 840 24.81 12.5 54.6 67 6.5 43.8 12.92 0.509
23:30 1011 29.85 840 24.81 12.5 54.5 67 6.5 43.7 12.88 0.507
23:31 1011 29.85 840 24.81 12.4 54.3 69 6.8 44.3 12.84 0.506
23:32 1011 29.85 840 24.81 12.3 54.2 65 5.9 42.6 12.74 0.502
23:33 1011 29.85 840 24.81 12.3 54.1 67 6.3 43.3 12.66 0.498
23:34 1011 29.85 840 24.81 12.3 54.1 68 6.6 44 12.67 0.499
23:35 1011 29.85 840 24.81 12.2 53.9 68 6.5 43.8 12.62 0.497
23:36 1011 29.85 840 24.81 12.1 53.8 68 6.4 43.5 12.5 0.492
23:37 1011 29.85 840 24.81 12.1 53.8 68 6.5 43.7 12.45 0.49
23:38 1011 29.85 840 24.81 12 53.7 70 6.7 44 12.42 0.489
23:39 1010 29.83 840 24.81 11.9 53.5 70 6.6 43.9 12.36 0.487
23:40 1010 29.83 840 24.81 11.9 53.5 70 6.6 43.9 12.33 0.485
23:41 1010 29.83 840 24.81 11.9 53.4 70 6.6 44 12.29 0.484
23:42 1010 29.83 840 24.81 11.8 53.3 71 6.9 44.4 12.27 0.483
23:43 1010 29.83 840 24.81 11.8 53.2 74 7.4 45.2 12.19 0.48
23:44 1010 29.83 840 24.81 11.6 52.9 76 7.6 45.7 12.08 0.476
23:45 1011 29.85 840 24.81 11.5 52.6 78 7.8 46 11.96 0.471
23:46 1011 29.85 840 24.81 11.4 52.4 79 7.9 46.2 11.86 0.467
23:47 1011 29.85 840 24.81 11.3 52.3 80 8 46.4 11.78 0.464
23:48 1011 29.85 840 24.81 11.2 52.2 81 8.1 46.6 11.68 0.46
23:49 1011 29.85 840 24.81 11.1 52 82 8.2 46.8 11.57 0.456
23:50 1011 29.85 840 24.81 11 51.8 83 8.3 47 11.49 0.452
23:51 1011 29.85 840 24.81 10.9 51.6 85 8.5 47.2 11.31 0.445
23:52 1011 29.85 840 24.81 10.7 51.3 86 8.5 47.3 11.16 0.439
23:53 1011 29.85 840 24.81 10.6 51.1 87 8.6 47.4 11.04 0.435
23:54 1011 29.85 840 24.81 10.5 50.8 88 8.6 47.5 10.94 0.431
23:55 1011 29.85 840 24.81 10.4 50.7 89 8.7 47.6 10.85 0.427
23:56 1011 29.85 840 24.81 10.4 50.6 90 8.8 47.8 10.81 0.426
23:57 1011 29.85 840 24.81 10.4 50.7 90 8.8 47.9 10.8 0.425
23:58 1011 29.85 840 24.81 10.4 50.7 90 8.8 47.8 10.74 0.423
23:59 1011 29.85 840 24.81 10.3 50.6 89 8.6 47.5 10.73 0.422
24:00 1011 29.85 840 24.81 10.5 50.8 87 8.3 47 10.79 0.425